Darstellungsparameter: Aktuell verwendete Einstellungen:
Skalierung der Graphiken ... ?
xyx+y,   Skalierungsfaktor:      Skalierung: Modus: x, Faktor: 1
Darstellungszeitraum ... ?
Vom - - bis: - -   Zeitraum: 08.08.2015 - 14.08.2015
Min/Max/Avg-Anzeige ... ?
Zeige MMA aktuell
Zeige MMA Monat
Zeige MMA alles
Zeige --A aktuell
Zeige --A Monat
Zeige --A alles
Keine MMA-Anzeige
MMA:
Keine MMA-Graphiken
MMA-Basis: 08.08.2015 - 14.08.2015
Quicknavigation für Darstellung... ?
Tage:      1T, 2T, 3T, 5T -1T -2T -3T -5T +1T +2T +3T +5T
Wochen: 1W, 2W, 3W -1W -2W -3W +1W +2W +3W
Monate: 1M, 3M, 6M -1M -3M -6M +1M +3M +6M
Jahre:    1J, 3J, 5J, 10J -1J -3J -5J -10J +1J +3J +5J +10J
Nutze für die Darstellung ... ?
Originaldaten oder Mittelwerte auf ...
Stundenbasis Tagesbasis Wochenbasis
Monatsbasis Jahresbasis      Datenbasis: Original-Daten
Darstellen als:
Statistik (Auto) Statistik J:M      Darstellung:
Zur Graphik,    zurück zur Übersicht aller Sensoren.
 
Tabellarische Datenbersicht: ?
 
Sensor: Nr:Datum:Temp:Feuchte:Taupunkt:
Aussen-T/F 1 08-08-2015 00:00:00 25.3 C 70 % 19.43 C
2 08-08-2015 00:05:00 25.3 C 71 % 19.66 C
3 08-08-2015 00:10:00 25.2 C 72 % 19.79 C
4 08-08-2015 00:15:00 24.8 C 75 % 20.06 C
5 08-08-2015 00:20:00 24.4 C 75 % 19.68 C
6 08-08-2015 00:25:00 24.3 C 77 % 20.01 C
7 08-08-2015 00:30:00 24.1 C 77 % 19.81 C
8 08-08-2015 00:35:00 23.9 C 78 % 19.83 C
9 08-08-2015 00:40:00 23.8 C 80 % 20.14 C
10 08-08-2015 00:45:00 23.5 C 80 % 19.85 C
11 08-08-2015 00:50:00 23.3 C 81 % 19.85 C
12 08-08-2015 00:55:00 23.2 C 82 % 19.95 C
13 08-08-2015 01:00:00 22.9 C 82 % 19.66 C
14 08-08-2015 01:05:00 22.7 C 83 % 19.66 C
15 08-08-2015 01:10:00 22.6 C 83 % 19.56 C
16 08-08-2015 01:15:00 22.4 C 84 % 19.56 C
17 08-08-2015 01:20:00 22.3 C 84 % 19.46 C
18 08-08-2015 01:25:00 22.1 C 85 % 19.46 C
19 08-08-2015 01:30:00 21.9 C 85 % 19.26 C
20 08-08-2015 01:35:00 21.8 C 86 % 19.35 C
21 08-08-2015 01:40:00 21.9 C 86 % 19.45 C
22 08-08-2015 01:45:00 21.9 C 85 % 19.26 C
23 08-08-2015 01:50:00 21.9 C 86 % 19.45 C
24 08-08-2015 01:55:00 21.9 C 86 % 19.45 C
25 08-08-2015 02:00:00 21.8 C 86 % 19.35 C
Sensor: Nr:Datum:Temp:Feuchte:Taupunkt:
Aussen-T/F 26 08-08-2015 02:05:00 21.7 C 87 % 19.44 C
27 08-08-2015 02:10:00 21.7 C 87 % 19.44 C
28 08-08-2015 02:15:00 22.1 C 85 % 19.46 C
29 08-08-2015 02:20:00 22.8 C 82 % 19.56 C
30 08-08-2015 02:25:00 23.1 C 81 % 19.66 C
31 08-08-2015 02:30:00 23.2 C 81 % 19.76 C
32 08-08-2015 02:35:00 23.3 C 80 % 19.65 C
33 08-08-2015 02:40:00 23.3 C 80 % 19.65 C
34 08-08-2015 02:45:00 23.4 C 79 % 19.55 C
35 08-08-2015 02:50:00 23.4 C 79 % 19.55 C
36 08-08-2015 02:55:00 23.5 C 78 % 19.44 C
37 08-08-2015 03:00:00 23.5 C 78 % 19.44 C
38 08-08-2015 03:05:00 23.4 C 78 % 19.34 C
39 08-08-2015 03:10:00 23.5 C 78 % 19.44 C
40 08-08-2015 03:15:00 23.5 C 78 % 19.44 C
41 08-08-2015 03:20:00 23.3 C 79 % 19.45 C
42 08-08-2015 03:25:00 23.3 C 79 % 19.45 C
43 08-08-2015 03:30:00 23.3 C 79 % 19.45 C
44 08-08-2015 03:35:00 23.3 C 79 % 19.45 C
45 08-08-2015 03:40:00 23.3 C 80 % 19.65 C
46 08-08-2015 03:45:00 23.1 C 80 % 19.46 C
47 08-08-2015 03:50:00 22.8 C 81 % 19.37 C
48 08-08-2015 03:55:00 22.7 C 81 % 19.27 C
49 08-08-2015 04:00:00 22.6 C 81 % 19.17 C
50 08-08-2015 04:05:00 22.6 C 81 % 19.17 C
Sensor: Nr:Datum:Temp:Feuchte:Taupunkt:
Aussen-T/F 51 08-08-2015 04:10:00 22.7 C 81 % 19.27 C
52 08-08-2015 04:15:00 22.7 C 80 % 19.07 C
53 08-08-2015 04:20:00 22.8 C 80 % 19.17 C
54 08-08-2015 04:25:00 22.8 C 80 % 19.17 C
55 08-08-2015 04:30:00 22.9 C 80 % 19.26 C
56 08-08-2015 04:35:00 22.8 C 80 % 19.17 C
57 08-08-2015 04:40:00 22.7 C 80 % 19.07 C
58 08-08-2015 04:45:00 22.6 C 81 % 19.17 C
59 08-08-2015 04:50:00 22.4 C 80 % 18.78 C
60 08-08-2015 04:55:00 22.4 C 80 % 18.78 C
61 08-08-2015 05:00:00 22.4 C 80 % 18.78 C
62 08-08-2015 05:05:00 22.5 C 79 % 18.67 C
63 08-08-2015 05:10:00 22.5 C 79 % 18.67 C
64 08-08-2015 05:15:00 22.5 C 81 % 19.08 C
65 08-08-2015 05:20:00 22.4 C 81 % 18.98 C
66 08-08-2015 05:25:00 22.3 C 82 % 19.08 C
67 08-08-2015 05:30:00 22.2 C 82 % 18.98 C
68 08-08-2015 05:35:00 22.1 C 83 % 19.08 C
69 08-08-2015 05:40:00 22 C 83 % 18.98 C
70 08-08-2015 05:45:00 21.9 C 84 % 19.07 C
71 08-08-2015 05:50:00 21.8 C 84 % 18.97 C
72 08-08-2015 05:55:00 21.7 C 84 % 18.88 C
73 08-08-2015 06:00:00 21.7 C 84 % 18.88 C
74 08-08-2015 06:05:00 21.6 C 85 % 18.97 C
75 08-08-2015 06:10:00 21.4 C 85 % 18.77 C
Sensor: Nr:Datum:Temp:Feuchte:Taupunkt:
Aussen-T/F 76 08-08-2015 06:15:00 21.3 C 85 % 18.67 C
77 08-08-2015 06:20:00 21.2 C 86 % 18.76 C
78 08-08-2015 06:25:00 21 C 86 % 18.57 C
79 08-08-2015 06:30:00 20.8 C 87 % 18.56 C
80 08-08-2015 06:35:00 20.8 C 88 % 18.74 C
81 08-08-2015 06:40:00 20.7 C 88 % 18.64 C
82 08-08-2015 06:45:00 20.7 C 88 % 18.64 C
83 08-08-2015 06:50:00 20.6 C 89 % 18.72 C
84 08-08-2015 06:55:00 20.6 C 89 % 18.72 C
85 08-08-2015 07:00:00 20.7 C 90 % 19 C
86 08-08-2015 07:05:00 20.7 C 90 % 19 C
87 08-08-2015 07:10:00 20.8 C 90 % 19.1 C
88 08-08-2015 07:15:00 20.8 C 90 % 19.1 C
89 08-08-2015 07:20:00 20.9 C 90 % 19.2 C
90 08-08-2015 07:25:00 20.9 C 90 % 19.2 C
91 08-08-2015 07:30:00 21 C 90 % 19.3 C
92 08-08-2015 07:35:00 21.1 C 90 % 19.39 C
93 08-08-2015 07:40:00 21.3 C 90 % 19.59 C
94 08-08-2015 07:45:00 21.3 C 90 % 19.59 C
95 08-08-2015 07:50:00 21.4 C 90 % 19.69 C
96 08-08-2015 07:55:00 21.5 C 90 % 19.79 C
97 08-08-2015 08:00:00 21.6 C 89 % 19.71 C
98 08-08-2015 08:05:00 21.7 C 89 % 19.81 C
99 08-08-2015 08:10:00 21.7 C 89 % 19.81 C
100 08-08-2015 08:15:00 21.7 C 89 % 19.81 C
Sensor: Nr:Datum:Temp:Feuchte:Taupunkt:
Aussen-T/F 101 08-08-2015 08:20:00 21.8 C 89 % 19.9 C
102 08-08-2015 08:25:00 21.9 C 89 % 20 C
103 08-08-2015 08:30:00 22 C 89 % 20.1 C
104 08-08-2015 08:35:00 22.1 C 88 % 20.02 C
105 08-08-2015 08:40:00 22.2 C 88 % 20.12 C
106 08-08-2015 08:45:00 22.3 C 87 % 20.03 C
107 08-08-2015 08:50:00 22.4 C 87 % 20.13 C
108 08-08-2015 08:55:00 22.4 C 87 % 20.13 C
109 08-08-2015 09:00:00 22.5 C 86 % 20.04 C
110 08-08-2015 09:05:00 22.6 C 86 % 20.14 C
111 08-08-2015 09:10:00 22.6 C 86 % 20.14 C
112 08-08-2015 09:15:00 22.7 C 86 % 20.24 C
113 08-08-2015 09:20:00 22.8 C 85 % 20.14 C
114 08-08-2015 09:25:00 22.8 C 84 % 19.95 C
115 08-08-2015 09:30:00 22.8 C 84 % 19.95 C
116 08-08-2015 09:35:00 22.8 C 84 % 19.95 C
117 08-08-2015 09:40:00 22.8 C 84 % 19.95 C
118 08-08-2015 09:45:00 22.9 C 83 % 19.86 C
119 08-08-2015 09:50:00 22.9 C 83 % 19.86 C
120 08-08-2015 09:55:00 22.8 C 82 % 19.56 C
121 08-08-2015 10:00:00 22.8 C 83 % 19.76 C
122 08-08-2015 10:05:00 22.9 C 82 % 19.66 C
123 08-08-2015 10:10:00 23.1 C 83 % 20.05 C
124 08-08-2015 10:15:00 23.2 C 82 % 19.95 C
125 08-08-2015 10:20:00 23.2 C 81 % 19.76 C
Sensor: Nr:Datum:Temp:Feuchte:Taupunkt:
Aussen-T/F 126 08-08-2015 10:25:00 23.3 C 81 % 19.85 C
127 08-08-2015 10:30:00 23.4 C 81 % 19.95 C
128 08-08-2015 10:35:00 23.5 C 80 % 19.85 C
129 08-08-2015 10:40:00 23.6 C 80 % 19.95 C
130 08-08-2015 10:45:00 23.8 C 78 % 19.73 C
131 08-08-2015 10:50:00 24 C 78 % 19.92 C
132 08-08-2015 10:55:00 24 C 77 % 19.72 C
133 08-08-2015 11:00:00 23.9 C 78 % 19.83 C
134 08-08-2015 11:05:00 23.8 C 78 % 19.73 C
135 08-08-2015 11:10:00 24.1 C 77 % 19.81 C
136 08-08-2015 11:15:00 24.1 C 77 % 19.81 C
137 08-08-2015 11:20:00 24.2 C 76 % 19.7 C
138 08-08-2015 11:25:00 24.2 C 76 % 19.7 C
139 08-08-2015 11:30:00 24.3 C 76 % 19.8 C
140 08-08-2015 11:35:00 24.4 C 75 % 19.68 C
141 08-08-2015 11:40:00 24.4 C 76 % 19.89 C
142 08-08-2015 11:45:00 24.6 C 76 % 20.09 C
143 08-08-2015 11:50:00 24.7 C 75 % 19.97 C
144 08-08-2015 11:55:00 24.8 C 74 % 19.85 C
145 08-08-2015 12:00:00 24.7 C 74 % 19.75 C
146 08-08-2015 12:05:00 24.3 C 75 % 19.58 C
147 08-08-2015 12:10:00 24.2 C 76 % 19.7 C
148 08-08-2015 12:15:00 24.3 C 76 % 19.8 C
149 08-08-2015 12:20:00 24.2 C 75 % 19.49 C
150 08-08-2015 12:25:00 24.3 C 76 % 19.8 C
Sensor: Nr:Datum:Temp:Feuchte:Taupunkt:
Aussen-T/F 151 08-08-2015 12:30:00 24.1 C 75 % 19.39 C
152 08-08-2015 12:35:00 24.1 C 75 % 19.39 C
153 08-08-2015 12:40:00 24 C 77 % 19.72 C
154 08-08-2015 12:45:00 24.1 C 76 % 19.6 C
155 08-08-2015 12:50:00 24.1 C 75 % 19.39 C
156 08-08-2015 12:55:00 24.1 C 75 % 19.39 C
157 08-08-2015 13:00:00 24.1 C 75 % 19.39 C
158 08-08-2015 13:05:00 24.2 C 76 % 19.7 C
159 08-08-2015 13:10:00 24.2 C 76 % 19.7 C
160 08-08-2015 13:15:00 24.3 C 74 % 19.37 C
161 08-08-2015 13:20:00 24.7 C 75 % 19.97 C
162 08-08-2015 13:25:00 24.8 C 73 % 19.63 C
163 08-08-2015 13:30:00 24.8 C 74 % 19.85 C
164 08-08-2015 13:35:00 24.8 C 74 % 19.85 C
165 08-08-2015 13:40:00 24.8 C 73 % 19.63 C
166 08-08-2015 13:45:00 24.7 C 73 % 19.53 C
167 08-08-2015 13:50:00 24.4 C 74 % 19.46 C
168 08-08-2015 13:55:00 24.2 C 73 % 19.05 C
169 08-08-2015 14:00:00 23.9 C 75 % 19.2 C
170 08-08-2015 14:05:00 23.6 C 76 % 19.12 C
171 08-08-2015 14:10:00 23.6 C 76 % 19.12 C
172 08-08-2015 14:15:00 23.4 C 77 % 19.14 C
173 08-08-2015 14:20:00 23.3 C 76 % 18.83 C
174 08-08-2015 14:25:00 23.2 C 77 % 18.94 C
175 08-08-2015 14:30:00 23.1 C 78 % 19.05 C
Sensor: Nr:Datum:Temp:Feuchte:Taupunkt:
Aussen-T/F 176 08-08-2015 14:35:00 22.9 C 77 % 18.65 C
177 08-08-2015 14:40:00 22.8 C 78 % 18.76 C
178 08-08-2015 14:45:00 22.9 C 78 % 18.86 C
179 08-08-2015 14:50:00 22.8 C 78 % 18.76 C
180 08-08-2015 14:55:00 22.7 C 78 % 18.67 C
181 08-08-2015 15:00:00 22.7 C 79 % 18.87 C
182 08-08-2015 15:05:00 22.6 C 79 % 18.77 C
183 08-08-2015 15:10:00 22.7 C 79 % 18.87 C
184 08-08-2015 15:15:00 22.8 C 79 % 18.97 C
185 08-08-2015 15:20:00 22.9 C 78 % 18.86 C
186 08-08-2015 15:25:00 22.8 C 78 % 18.76 C
187 08-08-2015 15:30:00 22.6 C 79 % 18.77 C
188 08-08-2015 15:35:00 22.6 C 79 % 18.77 C
189 08-08-2015 15:40:00 22.6 C 79 % 18.77 C
190 08-08-2015 15:45:00 22.8 C 79 % 18.97 C
191 08-08-2015 15:50:00 23 C 77 % 18.75 C
192 08-08-2015 15:55:00 23.1 C 78 % 19.05 C
193 08-08-2015 16:00:00 23.2 C 77 % 18.94 C
194 08-08-2015 16:05:00 23.3 C 77 % 19.04 C
195 08-08-2015 16:10:00 23.3 C 77 % 19.04 C
196 08-08-2015 16:15:00 23.2 C 77 % 18.94 C
197 08-08-2015 16:20:00 23.2 C 77 % 18.94 C
198 08-08-2015 16:25:00 23.2 C 76 % 18.73 C
199 08-08-2015 16:30:00 23.2 C 76 % 18.73 C
200 08-08-2015 16:35:00 23.2 C 77 % 18.94 C
Sensor: Nr:Datum:Temp:Feuchte:Taupunkt:
Aussen-T/F 201 08-08-2015 16:40:00 23.3 C 77 % 19.04 C
202 08-08-2015 16:45:00 23.4 C 76 % 18.93 C
203 08-08-2015 16:50:00 23.7 C 76 % 19.22 C
204 08-08-2015 16:55:00 23.9 C 75 % 19.2 C
205 08-08-2015 17:00:00 24.4 C 74 % 19.46 C
206 08-08-2015 17:05:00 24.9 C 73 % 19.72 C
207 08-08-2015 17:10:00 25.4 C 70 % 19.53 C
208 08-08-2015 17:15:00 25.5 C 70 % 19.62 C
209 08-08-2015 17:20:00 25.4 C 68 % 19.06 C
210 08-08-2015 17:25:00 25.3 C 69 % 19.2 C
211 08-08-2015 17:30:00 25 C 70 % 19.15 C
212 08-08-2015 17:35:00 24.9 C 71 % 19.28 C
213 08-08-2015 17:40:00 24.7 C 71 % 19.09 C
214 08-08-2015 17:45:00 24.6 C 71 % 18.99 C
215 08-08-2015 17:50:00 24.4 C 72 % 19.02 C
216 08-08-2015 17:55:00 24.4 C 72 % 19.02 C
217 08-08-2015 18:00:00 24.8 C 71 % 19.18 C
218 08-08-2015 18:05:00 25.1 C 69 % 19.01 C
219 08-08-2015 18:10:00 25.1 C 69 % 19.01 C
220 08-08-2015 18:15:00 24.8 C 70 % 18.95 C
221 08-08-2015 18:20:00 24.6 C 70 % 18.76 C
222 08-08-2015 18:25:00 24.4 C 70 % 18.57 C
223 08-08-2015 18:30:00 24.3 C 70 % 18.48 C
224 08-08-2015 18:35:00 24.3 C 70 % 18.48 C
225 08-08-2015 18:40:00 24.2 C 71 % 18.61 C
Sensor: Nr:Datum:Temp:Feuchte:Taupunkt:
Aussen-T/F 226 08-08-2015 18:45:00 24.3 C 70 % 18.48 C
227 08-08-2015 18:50:00 24.3 C 70 % 18.48 C
228 08-08-2015 18:55:00 24.3 C 71 % 18.7 C
229 08-08-2015 19:00:00 24.2 C 70 % 18.38 C
230 08-08-2015 19:05:00 24.1 C 71 % 18.51 C
231 08-08-2015 19:10:00 24 C 71 % 18.42 C
232 08-08-2015 19:15:00 23.8 C 72 % 18.45 C
233 08-08-2015 19:20:00 23.8 C 73 % 18.67 C
234 08-08-2015 19:25:00 23.7 C 74 % 18.79 C
235 08-08-2015 19:30:00 23.6 C 74 % 18.69 C
236 08-08-2015 19:35:00 23.5 C 74 % 18.6 C
237 08-08-2015 19:40:00 23.4 C 74 % 18.5 C
238 08-08-2015 19:45:00 23.2 C 74 % 18.31 C
239 08-08-2015 19:50:00 23.1 C 75 % 18.43 C
240 08-08-2015 19:55:00 22.9 C 75 % 18.23 C
241 08-08-2015 20:00:00 22.8 C 75 % 18.14 C
242 08-08-2015 20:05:00 22.6 C 75 % 17.94 C
243 08-08-2015 20:10:00 22.6 C 75 % 17.94 C
244 08-08-2015 20:15:00 22.5 C 76 % 18.06 C
245 08-08-2015 20:20:00 22.4 C 75 % 17.75 C
246 08-08-2015 20:25:00 22.4 C 75 % 17.75 C
247 08-08-2015 20:30:00 22.3 C 76 % 17.86 C
248 08-08-2015 20:35:00 22.2 C 76 % 17.77 C
249 08-08-2015 20:40:00 22.2 C 76 % 17.77 C
250 08-08-2015 20:45:00 22.1 C 76 % 17.67 C
Sensor: Nr:Datum:Temp:Feuchte:Taupunkt:
Aussen-T/F 251 08-08-2015 20:50:00 22 C 76 % 17.57 C
252 08-08-2015 20:55:00 21.9 C 76 % 17.48 C
253 08-08-2015 21:00:00 21.8 C 76 % 17.38 C
254 08-08-2015 21:05:00 21.7 C 77 % 17.49 C
255 08-08-2015 21:10:00 21.6 C 77 % 17.39 C
256 08-08-2015 21:15:00 21.5 C 77 % 17.3 C
257 08-08-2015 21:20:00 21.4 C 78 % 17.4 C
258 08-08-2015 21:25:00 21.4 C 78 % 17.4 C
259 08-08-2015 21:30:00 21.3 C 78 % 17.31 C
260 08-08-2015 21:35:00 21.2 C 79 % 17.41 C
261 08-08-2015 21:40:00 21.1 C 79 % 17.32 C
262 08-08-2015 21:45:00 21.1 C 79 % 17.32 C
263 08-08-2015 21:50:00 20.9 C 80 % 17.32 C
264 08-08-2015 21:55:00 20.8 C 80 % 17.22 C
265 08-08-2015 22:00:00 20.7 C 80 % 17.13 C
266 08-08-2015 22:05:00 20.7 C 80 % 17.13 C
267 08-08-2015 22:10:00 20.6 C 80 % 17.03 C
268 08-08-2015 22:15:00 20.6 C 81 % 17.22 C
269 08-08-2015 22:20:00 20.6 C 81 % 17.22 C
270 08-08-2015 22:25:00 20.5 C 81 % 17.13 C
271 08-08-2015 22:30:00 20.4 C 81 % 17.03 C
272 08-08-2015 22:35:00 20.4 C 81 % 17.03 C
273 08-08-2015 22:40:00 20.4 C 81 % 17.03 C
274 08-08-2015 22:45:00 20.4 C 81 % 17.03 C
275 08-08-2015 22:50:00 20.4 C 81 % 17.03 C
Sensor: Nr:Datum:Temp:Feuchte:Taupunkt:
Aussen-T/F 276 08-08-2015 22:55:00 20.5 C 81 % 17.13 C
277 08-08-2015 23:00:00 20.5 C 81 % 17.13 C
278 08-08-2015 23:05:00 20.5 C 81 % 17.13 C
279 08-08-2015 23:10:00 20.6 C 81 % 17.22 C
280 08-08-2015 23:15:00 20.6 C 81 % 17.22 C
281 08-08-2015 23:20:00 20.6 C 81 % 17.22 C
282 08-08-2015 23:25:00 20.7 C 81 % 17.32 C
283 08-08-2015 23:30:00 20.7 C 81 % 17.32 C
284 08-08-2015 23:35:00 20.7 C 81 % 17.32 C
285 08-08-2015 23:40:00 20.7 C 81 % 17.32 C
286 08-08-2015 23:45:00 20.7 C 81 % 17.32 C
287 08-08-2015 23:50:00 20.7 C 81 % 17.32 C
288 08-08-2015 23:55:00 20.6 C 81 % 17.22 C
289 09-08-2015 00:00:00 20.6 C 81 % 17.22 C
290 09-08-2015 00:05:00 20.5 C 82 % 17.32 C
291 09-08-2015 00:10:00 20.5 C 82 % 17.32 C
292 09-08-2015 00:15:00 20.5 C 82 % 17.32 C
293 09-08-2015 00:20:00 20.4 C 81 % 17.03 C
294 09-08-2015 00:25:00 20.4 C 82 % 17.22 C
295 09-08-2015 00:30:00 20.4 C 82 % 17.22 C
296 09-08-2015 00:35:00 20.3 C 82 % 17.13 C
297 09-08-2015 00:40:00 20.3 C 82 % 17.13 C
298 09-08-2015 00:45:00 20.2 C 83 % 17.22 C
299 09-08-2015 00:50:00 20.1 C 83 % 17.12 C
300 09-08-2015 00:55:00 20.1 C 83 % 17.12 C
Sensor: Nr:Datum:Temp:Feuchte:Taupunkt:
Aussen-T/F 301 09-08-2015 01:00:00 20 C 84 % 17.21 C
302 09-08-2015 01:05:00 20 C 84 % 17.21 C
303 09-08-2015 01:10:00 19.9 C 84 % 17.12 C
304 09-08-2015 01:15:00 19.9 C 85 % 17.3 C
305 09-08-2015 01:20:00 20 C 85 % 17.4 C
306 09-08-2015 01:25:00 19.9 C 85 % 17.3 C
307 09-08-2015 01:30:00 19.9 C 85 % 17.3 C
308 09-08-2015 01:35:00 19.9 C 85 % 17.3 C
309 09-08-2015 01:40:00 19.9 C 85 % 17.3 C
310 09-08-2015 01:45:00 19.8 C 85 % 17.21 C
311 09-08-2015 01:50:00 19.7 C 86 % 17.29 C
312 09-08-2015 01:55:00 19.7 C 86 % 17.29 C
313 09-08-2015 02:00:00 19.7 C 86 % 17.29 C
314 09-08-2015 02:05:00 19.6 C 86 % 17.19 C
315 09-08-2015 02:10:00 19.6 C 86 % 17.19 C
316 09-08-2015 02:15:00 19.6 C 86 % 17.19 C
317 09-08-2015 02:20:00 19.6 C 86 % 17.19 C
318 09-08-2015 02:25:00 19.6 C 86 % 17.19 C
319 09-08-2015 02:30:00 19.6 C 86 % 17.19 C
320 09-08-2015 02:35:00 19.5 C 86 % 17.1 C
321 09-08-2015 02:40:00 19.5 C 86 % 17.1 C
322 09-08-2015 02:45:00 19.4 C 86 % 17 C
323 09-08-2015 02:50:00 19.4 C 86 % 17 C
324 09-08-2015 02:55:00 19.4 C 86 % 17 C
325 09-08-2015 03:00:00 19.3 C 86 % 16.9 C
Sensor: Nr:Datum:Temp:Feuchte:Taupunkt:
Aussen-T/F 326 09-08-2015 03:05:00 19.3 C 86 % 16.9 C
327 09-08-2015 03:10:00 19.3 C 86 % 16.9 C
328 09-08-2015 03:15:00 19.3 C 86 % 16.9 C
329 09-08-2015 03:20:00 19.2 C 87 % 16.98 C
330 09-08-2015 03:25:00 19.2 C 87 % 16.98 C
331 09-08-2015 03:30:00 19.2 C 87 % 16.98 C
332 09-08-2015 03:35:00 19 C 87 % 16.79 C
333 09-08-2015 03:40:00 18.9 C 87 % 16.69 C
334 09-08-2015 03:45:00 18.7 C 88 % 16.67 C
335 09-08-2015 03:50:00 18.6 C 88 % 16.57 C
336 09-08-2015 03:55:00 18.4 C 88 % 16.38 C
337 09-08-2015 04:00:00 18.3 C 89 % 16.46 C
338 09-08-2015 04:05:00 18.1 C 89 % 16.26 C
339 09-08-2015 04:10:00 18.1 C 89 % 16.26 C
340 09-08-2015 04:15:00 17.9 C 90 % 16.24 C
341 09-08-2015 04:20:00 17.9 C 90 % 16.24 C
342 09-08-2015 04:25:00 17.8 C 90 % 16.14 C
343 09-08-2015 04:30:00 17.8 C 90 % 16.14 C
344 09-08-2015 04:35:00 17.8 C 90 % 16.14 C
345 09-08-2015 04:40:00 17.8 C 91 % 16.31 C
346 09-08-2015 04:45:00 17.8 C 91 % 16.31 C
347 09-08-2015 04:50:00 17.8 C 91 % 16.31 C
348 09-08-2015 04:55:00 17.7 C 91 % 16.21 C
349 09-08-2015 05:00:00 17.7 C 91 % 16.21 C
350 09-08-2015 05:05:00 17.6 C 91 % 16.11 C
Sensor: Nr:Datum:Temp:Feuchte:Taupunkt:
Aussen-T/F 351 09-08-2015 05:10:00 17.6 C 91 % 16.11 C
352 09-08-2015 05:15:00 17.5 C 91 % 16.01 C
353 09-08-2015 05:20:00 17.5 C 91 % 16.01 C
354 09-08-2015 05:25:00 17.5 C 92 % 16.19 C
355 09-08-2015 05:30:00 17.5 C 91 % 16.01 C
356 09-08-2015 05:35:00 17.5 C 91 % 16.01 C
357 09-08-2015 05:40:00 17.5 C 91 % 16.01 C
358 09-08-2015 05:45:00 17.4 C 91 % 15.92 C
359 09-08-2015 05:50:00 17.4 C 92 % 16.09 C
360 09-08-2015 05:55:00 17.4 C 92 % 16.09 C
361 09-08-2015 06:00:00 17.4 C 92 % 16.09 C
362 09-08-2015 06:05:00 17.4 C 92 % 16.09 C
363 09-08-2015 06:10:00 17.5 C 92 % 16.19 C
364 09-08-2015 06:15:00 17.5 C 92 % 16.19 C
365 09-08-2015 06:20:00 17.6 C 92 % 16.28 C
366 09-08-2015 06:25:00 17.6 C 92 % 16.28 C
367 09-08-2015 06:30:00 17.7 C 92 % 16.38 C
368 09-08-2015 06:35:00 17.7 C 92 % 16.38 C
369 09-08-2015 06:40:00 17.7 C 91 % 16.21 C
370 09-08-2015 06:45:00 17.8 C 91 % 16.31 C
371 09-08-2015 06:50:00 17.8 C 91 % 16.31 C
372 09-08-2015 06:55:00 17.9 C 90 % 16.24 C
373 09-08-2015 07:00:00 18.1 C 90 % 16.43 C
374 09-08-2015 07:05:00 18.2 C 89 % 16.36 C
375 09-08-2015 07:10:00 18.3 C 89 % 16.46 C
Sensor: Nr:Datum:Temp:Feuchte:Taupunkt:
Aussen-T/F 376 09-08-2015 07:15:00 18.3 C 88 % 16.28 C
377 09-08-2015 07:20:00 18.4 C 88 % 16.38 C
378 09-08-2015 07:25:00 18.6 C 88 % 16.57 C
379 09-08-2015 07:30:00 18.7 C 87 % 16.49 C
380 09-08-2015 07:35:00 18.7 C 87 % 16.49 C
381 09-08-2015 07:40:00 18.8 C 86 % 16.41 C
382 09-08-2015 07:45:00 18.9 C 86 % 16.51 C
383 09-08-2015 07:50:00 19 C 86 % 16.6 C
384 09-08-2015 07:55:00 19.2 C 86 % 16.8 C
385 09-08-2015 08:00:00 19.2 C 84 % 16.43 C
386 09-08-2015 08:05:00 19.2 C 85 % 16.62 C
387 09-08-2015 08:10:00 19.2 C 84 % 16.43 C
388 09-08-2015 08:15:00 19.2 C 84 % 16.43 C
389 09-08-2015 08:20:00 19.2 C 85 % 16.62 C
390 09-08-2015 08:25:00 19.3 C 84 % 16.53 C
391 09-08-2015 08:30:00 19.3 C 84 % 16.53 C
392 09-08-2015 08:35:00 19.3 C 84 % 16.53 C
393 09-08-2015 08:40:00 19.3 C 84 % 16.53 C
394 09-08-2015 08:45:00 19.4 C 84 % 16.63 C
395 09-08-2015 08:50:00 19.4 C 83 % 16.44 C
396 09-08-2015 08:55:00 19.4 C 84 % 16.63 C
397 09-08-2015 09:00:00 19.5 C 83 % 16.54 C
398 09-08-2015 09:05:00 19.6 C 83 % 16.63 C
399 09-08-2015 09:10:00 19.6 C 83 % 16.63 C
400 09-08-2015 09:15:00 19.7 C 83 % 16.73 C
Sensor: Nr:Datum:Temp:Feuchte:Taupunkt:
Aussen-T/F 401 09-08-2015 09:20:00 19.7 C 83 % 16.73 C
402 09-08-2015 09:25:00 19.8 C 83 % 16.83 C
403 09-08-2015 09:30:00 19.9 C 82 % 16.74 C
404 09-08-2015 09:35:00 20.1 C 82 % 16.93 C
405 09-08-2015 09:40:00 20.2 C 82 % 17.03 C
406 09-08-2015 09:45:00 20.2 C 81 % 16.84 C
407 09-08-2015 09:50:00 20.3 C 81 % 16.93 C
408 09-08-2015 09:55:00 20.4 C 81 % 17.03 C
409 09-08-2015 10:00:00 20.5 C 81 % 17.13 C
410 09-08-2015 10:05:00 20.6 C 81 % 17.22 C
411 09-08-2015 10:10:00 20.7 C 80 % 17.13 C
412 09-08-2015 10:15:00 20.7 C 80 % 17.13 C
413 09-08-2015 10:20:00 20.8 C 80 % 17.22 C
414 09-08-2015 10:25:00 20.8 C 80 % 17.22 C
415 09-08-2015 10:30:00 20.9 C 79 % 17.12 C
416 09-08-2015 10:35:00 20.9 C 79 % 17.12 C
417 09-08-2015 10:40:00 21 C 79 % 17.22 C
418 09-08-2015 10:45:00 21.1 C 79 % 17.32 C
419 09-08-2015 10:50:00 21.2 C 78 % 17.21 C
420 09-08-2015 10:55:00 21.3 C 79 % 17.51 C
421 09-08-2015 11:00:00 21.4 C 78 % 17.4 C
422 09-08-2015 11:05:00 21.6 C 78 % 17.6 C
423 09-08-2015 11:10:00 21.7 C 79 % 17.9 C
424 09-08-2015 11:15:00 21.8 C 77 % 17.59 C
425 09-08-2015 11:20:00 22 C 77 % 17.78 C
Sensor: Nr:Datum:Temp:Feuchte:Taupunkt:
Aussen-T/F 426 09-08-2015 11:25:00 22.2 C 77 % 17.98 C
427 09-08-2015 11:30:00 22.3 C 77 % 18.07 C
428 09-08-2015 11:35:00 22.4 C 75 % 17.75 C
429 09-08-2015 11:40:00 22.6 C 75 % 17.94 C
430 09-08-2015 11:45:00 22.7 C 76 % 18.25 C
431 09-08-2015 11:50:00 22.8 C 75 % 18.14 C
432 09-08-2015 11:55:00 22.8 C 74 % 17.92 C
433 09-08-2015 12:00:00 22.8 C 74 % 17.92 C
434 09-08-2015 12:05:00 22.9 C 75 % 18.23 C
435 09-08-2015 12:10:00 23 C 74 % 18.12 C
436 09-08-2015 12:15:00 23.1 C 74 % 18.21 C
437 09-08-2015 12:20:00 23.2 C 74 % 18.31 C
438 09-08-2015 12:25:00 23.5 C 73 % 18.38 C
439 09-08-2015 12:30:00 23.8 C 72 % 18.45 C
440 09-08-2015 12:35:00 23.8 C 71 % 18.22 C
441 09-08-2015 12:40:00 23.6 C 73 % 18.48 C
442 09-08-2015 12:45:00 23.7 C 72 % 18.35 C
443 09-08-2015 12:50:00 23.7 C 72 % 18.35 C
444 09-08-2015 12:55:00 23.8 C 72 % 18.45 C
445 09-08-2015 13:00:00 23.9 C 73 % 18.76 C
446 09-08-2015 13:05:00 24.1 C 72 % 18.73 C
447 09-08-2015 13:10:00 24.3 C 72 % 18.93 C
448 09-08-2015 13:15:00 24.5 C 72 % 19.12 C
449 09-08-2015 13:20:00 24.7 C 71 % 19.09 C
450 09-08-2015 13:25:00 24.7 C 71 % 19.09 C
Sensor: Nr:Datum:Temp:Feuchte:Taupunkt:
Aussen-T/F 451 09-08-2015 13:30:00 24.8 C 70 % 18.95 C
452 09-08-2015 13:35:00 24.8 C 69 % 18.72 C
453 09-08-2015 13:40:00 24.9 C 71 % 19.28 C
454 09-08-2015 13:45:00 25.3 C 69 % 19.2 C
455 09-08-2015 13:50:00 25.2 C 69 % 19.11 C
456 09-08-2015 13:55:00 25.2 C 70 % 19.34 C
457 09-08-2015 14:00:00 25.5 C 69 % 19.39 C
458 09-08-2015 14:05:00 25.7 C 67 % 19.11 C
459 09-08-2015 14:10:00 25.7 C 68 % 19.35 C
460 09-08-2015 14:15:00 25.8 C 68 % 19.44 C
461 09-08-2015 14:20:00 25.9 C 68 % 19.54 C
462 09-08-2015 14:25:00 25.8 C 67 % 19.2 C
463 09-08-2015 14:30:00 25.7 C 68 % 19.35 C
464 09-08-2015 14:35:00 25.6 C 68 % 19.25 C
465 09-08-2015 14:40:00 25.4 C 69 % 19.3 C
466 09-08-2015 14:45:00 25.6 C 69 % 19.49 C
467 09-08-2015 14:50:00 25.7 C 69 % 19.58 C
468 09-08-2015 14:55:00 25.7 C 69 % 19.58 C
469 09-08-2015 15:00:00 25.7 C 68 % 19.35 C
470 09-08-2015 15:05:00 25.8 C 69 % 19.68 C
471 09-08-2015 15:10:00 25.8 C 68 % 19.44 C
472 09-08-2015 15:15:00 25.8 C 68 % 19.44 C
473 09-08-2015 15:20:00 25.8 C 68 % 19.44 C
474 09-08-2015 15:25:00 25.8 C 68 % 19.44 C
475 09-08-2015 15:30:00 25.8 C 68 % 19.44 C
Sensor: Nr:Datum:Temp:Feuchte:Taupunkt:
Aussen-T/F 476 09-08-2015 15:35:00 25.7 C 68 % 19.35 C
477 09-08-2015 15:40:00 25.6 C 68 % 19.25 C
478 09-08-2015 15:45:00 25.4 C 69 % 19.3 C
479 09-08-2015 15:50:00 25.4 C 69 % 19.3 C
480 09-08-2015 15:55:00 25.4 C 70 % 19.53 C
481 09-08-2015 16:00:00 25.4 C 69 % 19.3 C
482 09-08-2015 16:05:00 25.4 C 70 % 19.53 C
483 09-08-2015 16:10:00 25.4 C 70 % 19.53 C
484 09-08-2015 16:15:00 25.4 C 69 % 19.3 C
485 09-08-2015 16:20:00 25.2 C 70 % 19.34 C
486 09-08-2015 16:25:00 25.1 C 70 % 19.24 C
487 09-08-2015 16:30:00 25.2 C 70 % 19.34 C
488 09-08-2015 16:35:00 25.4 C 70 % 19.53 C
489 09-08-2015 16:40:00 25.4 C 69 % 19.3 C
490 09-08-2015 16:45:00 25.6 C 69 % 19.49 C
491 09-08-2015 16:50:00 25.7 C 69 % 19.58 C
492 09-08-2015 16:55:00 25.8 C 69 % 19.68 C
493 09-08-2015 17:00:00 25.9 C 69 % 19.77 C
494 09-08-2015 17:05:00 26.2 C 67 % 19.59 C
495 09-08-2015 17:10:00 26.3 C 67 % 19.68 C
496 09-08-2015 17:15:00 26.3 C 67 % 19.68 C
497 09-08-2015 17:20:00 26.4 C 67 % 19.78 C
498 09-08-2015 17:25:00 26.4 C 67 % 19.78 C
499 09-08-2015 17:30:00 26.3 C 67 % 19.68 C
500 09-08-2015 17:35:00 26.2 C 68 % 19.82 C
Sensor: Nr:Datum:Temp:Feuchte:Taupunkt:
Aussen-T/F 501 09-08-2015 17:40:00 26.1 C 68 % 19.73 C
502 09-08-2015 17:45:00 26 C 68 % 19.63 C
503 09-08-2015 17:50:00 26.2 C 69 % 20.06 C
504 09-08-2015 17:55:00 26.5 C 68 % 20.11 C
505 09-08-2015 18:00:00 26.8 C 66 % 19.91 C
506 09-08-2015 18:05:00 26.9 C 65 % 19.76 C
507 09-08-2015 18:10:00 27.1 C 65 % 19.95 C
508 09-08-2015 18:15:00 27.1 C 65 % 19.95 C
509 09-08-2015 18:20:00 27.2 C 64 % 19.79 C
510 09-08-2015 18:25:00 27.3 C 64 % 19.89 C
511 09-08-2015 18:30:00 27.4 C 63 % 19.73 C
512 09-08-2015 18:35:00 27.6 C 62 % 19.66 C
513 09-08-2015 18:40:00 27.7 C 62 % 19.75 C
514 09-08-2015 18:45:00 27.6 C 63 % 19.92 C
515 09-08-2015 18:50:00 27.5 C 63 % 19.82 C
516 09-08-2015 18:55:00 27.4 C 63 % 19.73 C
517 09-08-2015 19:00:00 27.3 C 63 % 19.63 C
518 09-08-2015 19:05:00 26.8 C 64 % 19.42 C
519 09-08-2015 19:10:00 26.6 C 65 % 19.48 C
520 09-08-2015 19:15:00 26.3 C 66 % 19.44 C
521 09-08-2015 19:20:00 26.1 C 67 % 19.49 C
522 09-08-2015 19:25:00 25.9 C 67 % 19.3 C
523 09-08-2015 19:30:00 25.8 C 67 % 19.2 C
524 09-08-2015 19:35:00 25.7 C 68 % 19.35 C
525 09-08-2015 19:40:00 25.6 C 68 % 19.25 C
Sensor: Nr:Datum:Temp:Feuchte:Taupunkt:
Aussen-T/F 526 09-08-2015 19:45:00 25.7 C 68 % 19.35 C
527 09-08-2015 19:50:00 25.7 C 67 % 19.11 C
528 09-08-2015 19:55:00 25.7 C 67 % 19.11 C
529 09-08-2015 20:00:00 25.6 C 68 % 19.25 C
530 09-08-2015 20:05:00 25.6 C 68 % 19.25 C
531 09-08-2015 20:10:00 25.5 C 67 % 18.92 C
532 09-08-2015 20:15:00 25.4 C 68 % 19.06 C
533 09-08-2015 20:20:00 25.3 C 67 % 18.73 C
534 09-08-2015 20:25:00 25.1 C 68 % 18.78 C
535 09-08-2015 20:30:00 24.9 C 68 % 18.59 C
536 09-08-2015 20:35:00 24.7 C 68 % 18.4 C
537 09-08-2015 20:40:00 24.5 C 69 % 18.44 C
538 09-08-2015 20:45:00 24.4 C 69 % 18.34 C
539 09-08-2015 20:50:00 24.2 C 69 % 18.15 C
540 09-08-2015 20:55:00 24.1 C 70 % 18.29 C
541 09-08-2015 21:00:00 23.9 C 70 % 18.09 C
542 09-08-2015 21:05:00 23.8 C 70 % 18 C
543 09-08-2015 21:10:00 23.7 C 71 % 18.13 C
544 09-08-2015 21:15:00 23.4 C 71 % 17.84 C
545 09-08-2015 21:20:00 23.3 C 72 % 17.97 C
546 09-08-2015 21:25:00 23.1 C 72 % 17.78 C
547 09-08-2015 21:30:00 22.9 C 73 % 17.8 C
548 09-08-2015 21:35:00 22.8 C 73 % 17.71 C
549 09-08-2015 21:40:00 22.6 C 74 % 17.73 C
550 09-08-2015 21:45:00 22.4 C 75 % 17.75 C
Sensor: Nr:Datum:Temp:Feuchte:Taupunkt:
Aussen-T/F 551 09-08-2015 21:50:00 22.2 C 76 % 17.77 C
552 09-08-2015 21:55:00 22.1 C 76 % 17.67 C
553 09-08-2015 22:00:00 22 C 75 % 17.36 C
554 09-08-2015 22:05:00 22.1 C 76 % 17.67 C
555 09-08-2015 22:10:00 22 C 76 % 17.57 C
556 09-08-2015 22:15:00 21.8 C 75 % 17.17 C
557 09-08-2015 22:20:00 21.8 C 76 % 17.38 C
558 09-08-2015 22:25:00 21.7 C 77 % 17.49 C
559 09-08-2015 22:30:00 21.6 C 76 % 17.19 C
560 09-08-2015 22:35:00 21.6 C 76 % 17.19 C
561 09-08-2015 22:40:00 21.5 C 77 % 17.3 C
562 09-08-2015 22:45:00 21.4 C 77 % 17.2 C
563 09-08-2015 22:50:00 21.3 C 77 % 17.1 C
564 09-08-2015 22:55:00 21.2 C 78 % 17.21 C
565 09-08-2015 23:00:00 21.1 C 78 % 17.11 C
566 09-08-2015 23:05:00 21 C 78 % 17.02 C
567 09-08-2015 23:10:00 21 C 78 % 17.02 C
568 09-08-2015 23:15:00 21 C 78 % 17.02 C
569 09-08-2015 23:20:00 21 C 78 % 17.02 C
570 09-08-2015 23:25:00 20.9 C 78 % 16.92 C
571 09-08-2015 23:30:00 20.7 C 79 % 16.93 C
572 09-08-2015 23:35:00 20.7 C 79 % 16.93 C
573 09-08-2015 23:40:00 20.8 C 79 % 17.02 C
574 09-08-2015 23:45:00 20.7 C 79 % 16.93 C
575 09-08-2015 23:50:00 20.7 C 80 % 17.13 C
Sensor: Nr:Datum:Temp:Feuchte:Taupunkt:
Aussen-T/F 576 09-08-2015 23:55:00 20.7 C 80 % 17.13 C
577 10-08-2015 00:00:00 20.7 C 79 % 16.93 C
578 10-08-2015 00:05:00 20.8 C 79 % 17.02 C
579 10-08-2015 00:10:00 20.8 C 78 % 16.82 C
580 10-08-2015 00:15:00 20.9 C 78 % 16.92 C
581 10-08-2015 00:20:00 20.9 C 79 % 17.12 C
582 10-08-2015 00:25:00 20.8 C 79 % 17.02 C
583 10-08-2015 00:30:00 20.6 C 79 % 16.83 C
584 10-08-2015 00:35:00 20.4 C 80 % 16.83 C
585 10-08-2015 00:40:00 20.3 C 81 % 16.93 C
586 10-08-2015 00:45:00 20.3 C 81 % 16.93 C
587 10-08-2015 00:50:00 20.2 C 80 % 16.64 C
588 10-08-2015 00:55:00 20.3 C 80 % 16.74 C
589 10-08-2015 01:00:00 20.3 C 80 % 16.74 C
590 10-08-2015 01:05:00 20.3 C 80 % 16.74 C
591 10-08-2015 01:10:00 20.4 C 80 % 16.83 C
592 10-08-2015 01:15:00 20.4 C 80 % 16.83 C
593 10-08-2015 01:20:00 20.5 C 79 % 16.73 C
594 10-08-2015 01:25:00 20.5 C 80 % 16.93 C
595 10-08-2015 01:30:00 20.4 C 81 % 17.03 C
596 10-08-2015 01:35:00 20.4 C 80 % 16.83 C
597 10-08-2015 01:40:00 20.4 C 80 % 16.83 C
598 10-08-2015 01:45:00 20.4 C 80 % 16.83 C
599 10-08-2015 01:50:00 20.4 C 80 % 16.83 C
600 10-08-2015 01:55:00 20.4 C 79 % 16.64 C
Sensor: Nr:Datum:Temp:Feuchte:Taupunkt:
Aussen-T/F 601 10-08-2015 02:00:00 20.4 C 79 % 16.64 C
602 10-08-2015 02:05:00 20.4 C 79 % 16.64 C
603 10-08-2015 02:10:00 20.4 C 79 % 16.64 C
604 10-08-2015 02:15:00 20.5 C 79 % 16.73 C
605 10-08-2015 02:20:00 20.5 C 79 % 16.73 C
606 10-08-2015 02:25:00 20.5 C 79 % 16.73 C
607 10-08-2015 02:30:00 20.4 C 79 % 16.64 C
608 10-08-2015 02:35:00 20.4 C 79 % 16.64 C
609 10-08-2015 02:40:00 20.4 C 79 % 16.64 C
610 10-08-2015 02:45:00 20.4 C 79 % 16.64 C
611 10-08-2015 02:50:00 20.4 C 79 % 16.64 C
612 10-08-2015 02:55:00 20.4 C 79 % 16.64 C
613 10-08-2015 03:00:00 20.3 C 79 % 16.54 C
614 10-08-2015 03:05:00 20.3 C 80 % 16.74 C
615 10-08-2015 03:10:00 20.3 C 80 % 16.74 C
616 10-08-2015 03:15:00 20.2 C 81 % 16.84 C
617 10-08-2015 03:20:00 20.1 C 82 % 16.93 C
618 10-08-2015 03:25:00 20 C 82 % 16.83 C
619 10-08-2015 03:30:00 19.9 C 83 % 16.93 C
620 10-08-2015 03:35:00 19.9 C 83 % 16.93 C
621 10-08-2015 03:40:00 19.8 C 83 % 16.83 C
622 10-08-2015 03:45:00 19.8 C 83 % 16.83 C
623 10-08-2015 03:50:00 19.8 C 82 % 16.64 C
624 10-08-2015 03:55:00 19.8 C 83 % 16.83 C
625 10-08-2015 04:00:00 19.8 C 81 % 16.45 C
Sensor: Nr:Datum:Temp:Feuchte:Taupunkt:
Aussen-T/F 626 10-08-2015 04:05:00 19.9 C 80 % 16.35 C
627 10-08-2015 04:10:00 20.1 C 81 % 16.74 C
628 10-08-2015 04:15:00 20.1 C 83 % 17.12 C
629 10-08-2015 04:20:00 19.7 C 85 % 17.11 C
630 10-08-2015 04:25:00 19.4 C 87 % 17.18 C
631 10-08-2015 04:30:00 19.1 C 88 % 17.07 C
632 10-08-2015 04:35:00 18.8 C 89 % 16.95 C
633 10-08-2015 04:40:00 18.7 C 90 % 17.03 C
634 10-08-2015 04:45:00 18.6 C 91 % 17.1 C
635 10-08-2015 04:50:00 18.5 C 91 % 17 C
636 10-08-2015 04:55:00 18.4 C 91 % 16.9 C
637 10-08-2015 05:00:00 18.3 C 92 % 16.98 C
638 10-08-2015 05:05:00 18.2 C 92 % 16.88 C
639 10-08-2015 05:10:00 18.2 C 92 % 16.88 C
640 10-08-2015 05:15:00 18.1 C 92 % 16.78 C
641 10-08-2015 05:20:00 17.9 C 92 % 16.58 C
642 10-08-2015 05:25:00 17.9 C 92 % 16.58 C
643 10-08-2015 05:30:00 17.9 C 92 % 16.58 C
644 10-08-2015 05:35:00 17.8 C 93 % 16.65 C
645 10-08-2015 05:40:00 17.8 C 93 % 16.65 C
646 10-08-2015 05:45:00 17.7 C 93 % 16.55 C
647 10-08-2015 05:50:00 17.7 C 93 % 16.55 C
648 10-08-2015 05:55:00 17.7 C 94 % 16.72 C
649 10-08-2015 06:00:00 17.7 C 94 % 16.72 C
650 10-08-2015 06:05:00 17.6 C 94 % 16.62 C
Sensor: Nr:Datum:Temp:Feuchte:Taupunkt:
Aussen-T/F 651 10-08-2015 06:10:00 17.6 C 94 % 16.62 C
652 10-08-2015 06:15:00 17.6 C 94 % 16.62 C
653 10-08-2015 06:20:00 17.5 C 94 % 16.52 C
654 10-08-2015 06:25:00 17.4 C 94 % 16.42 C
655 10-08-2015 06:30:00 17.4 C 94 % 16.42 C
656 10-08-2015 06:35:00 17.4 C 94 % 16.42 C
657 10-08-2015 06:40:00 17.4 C 94 % 16.42 C
658 10-08-2015 06:45:00 17.4 C 95 % 16.59 C
659 10-08-2015 06:50:00 17.4 C 95 % 16.59 C
660 10-08-2015 06:55:00 17.4 C 95 % 16.59 C
661 10-08-2015 07:00:00 17.4 C 95 % 16.59 C
662 10-08-2015 07:05:00 17.5 C 95 % 16.69 C
663 10-08-2015 07:10:00 17.4 C 95 % 16.59 C
664 10-08-2015 07:15:00 17.4 C 95 % 16.59 C
665 10-08-2015 07:20:00 17.4 C 95 % 16.59 C
666 10-08-2015 07:25:00 17.5 C 95 % 16.69 C
667 10-08-2015 07:30:00 17.4 C 95 % 16.59 C
668 10-08-2015 07:35:00 17.5 C 95 % 16.69 C
669 10-08-2015 07:40:00 17.5 C 95 % 16.69 C
670 10-08-2015 07:45:00 17.6 C 95 % 16.79 C
671 10-08-2015 07:50:00 17.6 C 95 % 16.79 C
672 10-08-2015 07:55:00 17.7 C 96 % 17.05 C
673 10-08-2015 08:00:00 17.8 C 95 % 16.99 C
674 10-08-2015 08:05:00 17.8 C 95 % 16.99 C
675 10-08-2015 08:10:00 17.8 C 95 % 16.99 C
Sensor: Nr:Datum:Temp:Feuchte:Taupunkt:
Aussen-T/F 676 10-08-2015 08:15:00 17.9 C 96 % 17.25 C
677 10-08-2015 08:20:00 17.9 C 96 % 17.25 C
678 10-08-2015 08:25:00 18 C 96 % 17.35 C
679 10-08-2015 08:30:00 18 C 96 % 17.35 C
680 10-08-2015 08:35:00 18 C 95 % 17.19 C
681 10-08-2015 08:40:00 18 C 95 % 17.19 C
682 10-08-2015 08:45:00 18.1 C 95 % 17.29 C
683 10-08-2015 08:50:00 18.2 C 95 % 17.39 C
684 10-08-2015 08:55:00 18.3 C 95 % 17.48 C
685 10-08-2015 09:00:00 18.3 C 95 % 17.48 C
686 10-08-2015 09:05:00 18.3 C 95 % 17.48 C
687 10-08-2015 09:10:00 18.3 C 95 % 17.48 C
688 10-08-2015 09:15:00 18.3 C 95 % 17.48 C
689 10-08-2015 09:20:00 18.4 C 95 % 17.58 C
690 10-08-2015 09:25:00 18.4 C 94 % 17.42 C
691 10-08-2015 09:30:00 18.4 C 94 % 17.42 C
692 10-08-2015 09:35:00 18.4 C 94 % 17.42 C
693 10-08-2015 09:40:00 18.4 C 94 % 17.42 C
694 10-08-2015 09:45:00 18.4 C 93 % 17.25 C
695 10-08-2015 09:50:00 18.3 C 92 % 16.98 C
696 10-08-2015 09:55:00 18.4 C 92 % 17.08 C
697 10-08-2015 10:00:00 18.4 C 93 % 17.25 C
698 10-08-2015 10:05:00 18.4 C 93 % 17.25 C
699 10-08-2015 10:10:00 18.6 C 93 % 17.45 C
700 10-08-2015 10:15:00 18.6 C 93 % 17.45 C
Sensor: Nr:Datum:Temp:Feuchte:Taupunkt:
Aussen-T/F 701 10-08-2015 10:20:00 18.7 C 92 % 17.37 C
702 10-08-2015 10:25:00 18.8 C 91 % 17.3 C
703 10-08-2015 10:30:00 18.9 C 90 % 17.22 C
704 10-08-2015 10:35:00 19.1 C 90 % 17.42 C
705 10-08-2015 10:40:00 19.3 C 89 % 17.44 C
706 10-08-2015 10:45:00 19.4 C 88 % 17.36 C
707 10-08-2015 10:50:00 19.6 C 87 % 17.38 C
708 10-08-2015 10:55:00 19.7 C 87 % 17.47 C
709 10-08-2015 11:00:00 19.9 C 88 % 17.85 C
710 10-08-2015 11:05:00 20.1 C 87 % 17.87 C
711 10-08-2015 11:10:00 20.3 C 87 % 18.06 C
712 10-08-2015 11:15:00 20.5 C 85 % 17.89 C
713 10-08-2015 11:20:00 20.6 C 85 % 17.99 C
714 10-08-2015 11:25:00 20.8 C 85 % 18.18 C
715 10-08-2015 11:30:00 21.1 C 85 % 18.48 C
716 10-08-2015 11:35:00 21.2 C 84 % 18.39 C
717 10-08-2015 11:40:00 21.3 C 82 % 18.1 C
718 10-08-2015 11:45:00 21.4 C 83 % 18.39 C
719 10-08-2015 11:50:00 21.4 C 83 % 18.39 C
720 10-08-2015 11:55:00 21.5 C 81 % 18.1 C
721 10-08-2015 12:00:00 21.6 C 81 % 18.2 C
722 10-08-2015 12:05:00 21.8 C 81 % 18.39 C
723 10-08-2015 12:10:00 21.9 C 79 % 18.09 C
724 10-08-2015 12:15:00 22.2 C 79 % 18.38 C
725 10-08-2015 12:20:00 22.2 C 78 % 18.18 C
Sensor: Nr:Datum:Temp:Feuchte:Taupunkt:
Aussen-T/F 726 10-08-2015 12:25:00 22.1 C 78 % 18.08 C
727 10-08-2015 12:30:00 22.1 C 77 % 17.88 C
728 10-08-2015 12:35:00 22.2 C 76 % 17.77 C
729 10-08-2015 12:40:00 22.3 C 75 % 17.65 C
730 10-08-2015 12:45:00 22.5 C 77 % 18.27 C
731 10-08-2015 12:50:00 22.7 C 75 % 18.04 C
732 10-08-2015 12:55:00 22.9 C 75 % 18.23 C
733 10-08-2015 13:00:00 22.8 C 74 % 17.92 C
734 10-08-2015 13:05:00 22.8 C 75 % 18.14 C
735 10-08-2015 13:10:00 23 C 75 % 18.33 C
736 10-08-2015 13:15:00 23.1 C 73 % 17.99 C
737 10-08-2015 13:20:00 23 C 75 % 18.33 C
738 10-08-2015 13:25:00 22.9 C 73 % 17.8 C
739 10-08-2015 13:30:00 23 C 74 % 18.12 C
740 10-08-2015 13:35:00 22.7 C 73 % 17.61 C
741 10-08-2015 13:40:00 22.8 C 74 % 17.92 C
742 10-08-2015 13:45:00 23 C 74 % 18.12 C
743 10-08-2015 13:50:00 23.3 C 74 % 18.4 C
744 10-08-2015 13:55:00 23.4 C 72 % 18.06 C
745 10-08-2015 14:00:00 23.4 C 73 % 18.28 C
746 10-08-2015 14:05:00 23.7 C 71 % 18.13 C
747 10-08-2015 14:10:00 23.8 C 71 % 18.22 C
748 10-08-2015 14:15:00 23.6 C 70 % 17.81 C
749 10-08-2015 14:20:00 23.6 C 72 % 18.26 C
750 10-08-2015 14:25:00 23.9 C 71 % 18.32 C
Sensor: Nr:Datum:Temp:Feuchte:Taupunkt:
Aussen-T/F 751 10-08-2015 14:30:00 24.3 C 69 % 18.25 C
752 10-08-2015 14:35:00 24.3 C 70 % 18.48 C
753 10-08-2015 14:40:00 24.3 C 68 % 18.01 C
754 10-08-2015 14:45:00 24.2 C 69 % 18.15 C
755 10-08-2015 14:50:00 23.8 C 69 % 17.77 C
756 10-08-2015 14:55:00 23.7 C 70 % 17.9 C
757 10-08-2015 15:00:00 23.5 C 71 % 17.94 C
758 10-08-2015 15:05:00 23.5 C 71 % 17.94 C
759 10-08-2015 15:10:00 23.7 C 70 % 17.9 C
760 10-08-2015 15:15:00 23.8 C 69 % 17.77 C
761 10-08-2015 15:20:00 23.8 C 69 % 17.77 C
762 10-08-2015 15:25:00 23.9 C 69 % 17.87 C
763 10-08-2015 15:30:00 23.9 C 70 % 18.09 C
764 10-08-2015 15:35:00 24 C 69 % 17.96 C
765 10-08-2015 15:40:00 23.9 C 68 % 17.63 C
766 10-08-2015 15:45:00 23.7 C 68 % 17.44 C
767 10-08-2015 15:50:00 23.6 C 71 % 18.03 C
768 10-08-2015 15:55:00 23.6 C 71 % 18.03 C
769 10-08-2015 16:00:00 23.5 C 69 % 17.48 C
770 10-08-2015 16:05:00 23.1 C 71 % 17.55 C
771 10-08-2015 16:10:00 23.1 C 72 % 17.78 C
772 10-08-2015 16:15:00 23 C 71 % 17.46 C
773 10-08-2015 16:20:00 23 C 72 % 17.68 C
774 10-08-2015 16:25:00 22.8 C 71 % 17.27 C
775 10-08-2015 16:30:00 22.5 C 72 % 17.2 C
Sensor: Nr:Datum:Temp:Feuchte:Taupunkt:
Aussen-T/F 776 10-08-2015 16:35:00 22.3 C 73 % 17.23 C
777 10-08-2015 16:40:00 22.1 C 74 % 17.25 C
778 10-08-2015 16:45:00 21.9 C 74 % 17.06 C
779 10-08-2015 16:50:00 21.8 C 74 % 16.96 C
780 10-08-2015 16:55:00 21.8 C 74 % 16.96 C
781 10-08-2015 17:00:00 21.8 C 74 % 16.96 C
782 10-08-2015 17:05:00 21.7 C 75 % 17.07 C
783 10-08-2015 17:10:00 21.7 C 76 % 17.28 C
784 10-08-2015 17:15:00 21.6 C 77 % 17.39 C
785 10-08-2015 17:20:00 21.4 C 77 % 17.2 C
786 10-08-2015 17:25:00 21.2 C 78 % 17.21 C
787 10-08-2015 17:30:00 21.1 C 79 % 17.32 C
788 10-08-2015 17:35:00 20.8 C 79 % 17.02 C
789 10-08-2015 17:40:00 20.7 C 79 % 16.93 C
790 10-08-2015 17:45:00 20.5 C 78 % 16.53 C
791 10-08-2015 17:50:00 20.4 C 78 % 16.44 C
792 10-08-2015 17:55:00 20.2 C 76 % 15.83 C
793 10-08-2015 18:00:00 20.1 C 76 % 15.74 C
794 10-08-2015 18:05:00 20.1 C 76 % 15.74 C
795 10-08-2015 18:10:00 20.1 C 76 % 15.74 C
796 10-08-2015 18:15:00 20 C 75 % 15.43 C
797 10-08-2015 18:20:00 19.9 C 76 % 15.54 C
798 10-08-2015 18:25:00 19.9 C 76 % 15.54 C
799 10-08-2015 18:30:00 19.8 C 75 % 15.24 C
800 10-08-2015 18:35:00 19.7 C 75 % 15.15 C
Sensor: Nr:Datum:Temp:Feuchte:Taupunkt:
Aussen-T/F 801 10-08-2015 18:40:00 19.6 C 76 % 15.26 C
802 10-08-2015 18:45:00 19.6 C 76 % 15.26 C
803 10-08-2015 18:50:00 19.5 C 76 % 15.16 C
804 10-08-2015 18:55:00 19.5 C 76 % 15.16 C
805 10-08-2015 19:00:00 19.5 C 77 % 15.36 C
806 10-08-2015 19:05:00 19.5 C 77 % 15.36 C
807 10-08-2015 19:10:00 19.5 C 77 % 15.36 C
808 10-08-2015 19:15:00 19.3 C 78 % 15.37 C
809 10-08-2015 19:20:00 19.1 C 78 % 15.18 C
810 10-08-2015 19:25:00 19 C 80 % 15.47 C
811 10-08-2015 19:30:00 18.9 C 80 % 15.38 C
812 10-08-2015 19:35:00 18.8 C 80 % 15.28 C
813 10-08-2015 19:40:00 18.7 C 81 % 15.37 C
814 10-08-2015 19:45:00 18.4 C 82 % 15.27 C
815 10-08-2015 19:50:00 18.3 C 83 % 15.36 C
816 10-08-2015 19:55:00 18.1 C 83 % 15.17 C
817 10-08-2015 20:00:00 18.1 C 84 % 15.35 C
818 10-08-2015 20:05:00 18 C 84 % 15.26 C
819 10-08-2015 20:10:00 18 C 85 % 15.44 C
820 10-08-2015 20:15:00 17.9 C 85 % 15.34 C
821 10-08-2015 20:20:00 17.9 C 85 % 15.34 C
822 10-08-2015 20:25:00 17.9 C 86 % 15.53 C
823 10-08-2015 20:30:00 17.9 C 86 % 15.53 C
824 10-08-2015 20:35:00 17.9 C 86 % 15.53 C
825 10-08-2015 20:40:00 17.8 C 86 % 15.43 C
Sensor: Nr:Datum:Temp:Feuchte:Taupunkt:
Aussen-T/F 826 10-08-2015 20:45:00 17.7 C 86 % 15.33 C
827 10-08-2015 20:50:00 17.6 C 86 % 15.23 C
828 10-08-2015 20:55:00 17.4 C 87 % 15.21 C
829 10-08-2015 21:00:00 17.3 C 87 % 15.12 C
830 10-08-2015 21:05:00 17.2 C 87 % 15.02 C
831 10-08-2015 21:10:00 17.2 C 87 % 15.02 C
832 10-08-2015 21:15:00 17.2 C 87 % 15.02 C
833 10-08-2015 21:20:00 17.2 C 87 % 15.02 C
834 10-08-2015 21:25:00 17.2 C 87 % 15.02 C
835 10-08-2015 21:30:00 17.2 C 87 % 15.02 C
836 10-08-2015 21:35:00 17.2 C 87 % 15.02 C
837 10-08-2015 21:40:00 17.2 C 87 % 15.02 C
838 10-08-2015 21:45:00 17.3 C 88 % 15.29 C
839 10-08-2015 21:50:00 17.3 C 87 % 15.12 C
840 10-08-2015 21:55:00 17.3 C 87 % 15.12 C
841 10-08-2015 22:00:00 17.3 C 88 % 15.29 C
842 10-08-2015 22:05:00 17.2 C 88 % 15.2 C
843 10-08-2015 22:10:00 17.2 C 88 % 15.2 C
844 10-08-2015 22:15:00 17.2 C 88 % 15.2 C
845 10-08-2015 22:20:00 17.2 C 88 % 15.2 C
846 10-08-2015 22:25:00 17.2 C 88 % 15.2 C
847 10-08-2015 22:30:00 17.2 C 88 % 15.2 C
848 10-08-2015 22:35:00 17.2 C 88 % 15.2 C
849 10-08-2015 22:40:00 17.2 C 88 % 15.2 C
850 10-08-2015 22:45:00 17.2 C 88 % 15.2 C
Sensor: Nr:Datum:Temp:Feuchte:Taupunkt:
Aussen-T/F 851 10-08-2015 22:50:00 17.2 C 88 % 15.2 C
852 10-08-2015 22:55:00 17.2 C 88 % 15.2 C
853 10-08-2015 23:00:00 17.2 C 88 % 15.2 C
854 10-08-2015 23:05:00 17.2 C 88 % 15.2 C
855 10-08-2015 23:10:00 17.2 C 88 % 15.2 C
856 10-08-2015 23:15:00 17.2 C 88 % 15.2 C
857 10-08-2015 23:20:00 17.2 C 88 % 15.2 C
858 10-08-2015 23:25:00 17.2 C 88 % 15.2 C
859 10-08-2015 23:30:00 17.2 C 88 % 15.2 C
860 10-08-2015 23:35:00 17.2 C 89 % 15.37 C
861 10-08-2015 23:40:00 17.2 C 89 % 15.37 C
862 10-08-2015 23:45:00 17.3 C 89 % 15.47 C
863 10-08-2015 23:50:00 17.3 C 89 % 15.47 C
864 10-08-2015 23:55:00 17.3 C 89 % 15.47 C
865 11-08-2015 00:00:00 17.4 C 89 % 15.57 C
866 11-08-2015 00:05:00 17.4 C 88 % 15.39 C
867 11-08-2015 00:10:00 17.4 C 88 % 15.39 C
868 11-08-2015 00:15:00 17.4 C 88 % 15.39 C
869 11-08-2015 00:20:00 17.4 C 88 % 15.39 C
870 11-08-2015 00:25:00 17.5 C 88 % 15.49 C
871 11-08-2015 00:30:00 17.6 C 89 % 15.77 C
872 11-08-2015 00:35:00 17.6 C 88 % 15.59 C
873 11-08-2015 00:40:00 17.6 C 88 % 15.59 C
874 11-08-2015 00:45:00 17.6 C 89 % 15.77 C
875 11-08-2015 00:50:00 17.6 C 88 % 15.59 C
Sensor: Nr:Datum:Temp:Feuchte:Taupunkt:
Aussen-T/F 876 11-08-2015 00:55:00 17.6 C 88 % 15.59 C
877 11-08-2015 01:00:00 17.6 C 88 % 15.59 C
878 11-08-2015 01:05:00 17.6 C 88 % 15.59 C
879 11-08-2015 01:10:00 17.6 C 88 % 15.59 C
880 11-08-2015 01:15:00 17.6 C 88 % 15.59 C
881 11-08-2015 01:20:00 17.6 C 88 % 15.59 C
882 11-08-2015 01:25:00 17.6 C 88 % 15.59 C
883 11-08-2015 01:30:00 17.6 C 88 % 15.59 C
884 11-08-2015 01:35:00 17.6 C 88 % 15.59 C
885 11-08-2015 01:40:00 17.6 C 88 % 15.59 C
886 11-08-2015 01:45:00 17.5 C 88 % 15.49 C
887 11-08-2015 01:50:00 17.5 C 88 % 15.49 C
888 11-08-2015 01:55:00 17.5 C 88 % 15.49 C
889 11-08-2015 02:00:00 17.5 C 88 % 15.49 C
890 11-08-2015 02:05:00 17.4 C 88 % 15.39 C
891 11-08-2015 02:10:00 17.4 C 88 % 15.39 C
892 11-08-2015 02:15:00 17.4 C 88 % 15.39 C
893 11-08-2015 02:20:00 17.5 C 88 % 15.49 C
894 11-08-2015 02:25:00 17.4 C 88 % 15.39 C
895 11-08-2015 02:30:00 17.4 C 88 % 15.39 C
896 11-08-2015 02:35:00 17.4 C 88 % 15.39 C
897 11-08-2015 02:40:00 17.4 C 88 % 15.39 C
898 11-08-2015 02:45:00 17.4 C 88 % 15.39 C
899 11-08-2015 02:50:00 17.4 C 88 % 15.39 C
900 11-08-2015 02:55:00 17.5 C 88 % 15.49 C
Sensor: Nr:Datum:Temp:Feuchte:Taupunkt:
Aussen-T/F 901 11-08-2015 03:00:00 17.5 C 88 % 15.49 C
902 11-08-2015 03:05:00 17.4 C 88 % 15.39 C
903 11-08-2015 03:10:00 17.4 C 88 % 15.39 C
904 11-08-2015 03:15:00 17.4 C 87 % 15.21 C
905 11-08-2015 03:20:00 17.4 C 87 % 15.21 C
906 11-08-2015 03:25:00 17.4 C 88 % 15.39 C
907 11-08-2015 03:30:00 17.4 C 88 % 15.39 C
908 11-08-2015 03:35:00 17.4 C 88 % 15.39 C
909 11-08-2015 03:40:00 17.4 C 88 % 15.39 C
910 11-08-2015 03:45:00 17.4 C 88 % 15.39 C
911 11-08-2015 03:50:00 17.4 C 88 % 15.39 C
912 11-08-2015 03:55:00 17.4 C 88 % 15.39 C
913 11-08-2015 04:00:00 17.4 C 88 % 15.39 C
914 11-08-2015 04:05:00 17.4 C 88 % 15.39 C
915 11-08-2015 04:10:00 17.4 C 88 % 15.39 C
916 11-08-2015 04:15:00 17.4 C 89 % 15.57 C
917 11-08-2015 04:20:00 17.4 C 89 % 15.57 C
918 11-08-2015 04:25:00 17.4 C 89 % 15.57 C
919 11-08-2015 04:30:00 17.4 C 89 % 15.57 C
920 11-08-2015 04:35:00 17.4 C 89 % 15.57 C
921 11-08-2015 04:40:00 17.4 C 89 % 15.57 C
922 11-08-2015 04:45:00 17.3 C 89 % 15.47 C
923 11-08-2015 04:50:00 17.4 C 89 % 15.57 C
924 11-08-2015 04:55:00 17.3 C 89 % 15.47 C
925 11-08-2015 05:00:00 17.3 C 89 % 15.47 C
Sensor: Nr:Datum:Temp:Feuchte:Taupunkt:
Aussen-T/F 926 11-08-2015 05:05:00 17.3 C 89 % 15.47 C
927 11-08-2015 05:10:00 17.3 C 89 % 15.47 C
928 11-08-2015 05:15:00 17.4 C 89 % 15.57 C
929 11-08-2015 05:20:00 17.4 C 89 % 15.57 C
930 11-08-2015 05:25:00 17.4 C 89 % 15.57 C
931 11-08-2015 05:30:00 17.4 C 90 % 15.74 C
932 11-08-2015 05:35:00 17.4 C 89 % 15.57 C
933 11-08-2015 05:40:00 17.4 C 88 % 15.39 C
934 11-08-2015 05:45:00 17.4 C 88 % 15.39 C
935 11-08-2015 05:50:00 17.4 C 88 % 15.39 C
936 11-08-2015 05:55:00 17.3 C 88 % 15.29 C
937 11-08-2015 06:00:00 17.3 C 88 % 15.29 C
938 11-08-2015 06:05:00 17.2 C 88 % 15.2 C
939 11-08-2015 06:10:00 17.2 C 88 % 15.2 C
940 11-08-2015 06:15:00 17.1 C 88 % 15.1 C
941 11-08-2015 06:20:00 17.1 C 88 % 15.1 C
942 11-08-2015 06:25:00 17 C 89 % 15.17 C
943 11-08-2015 06:30:00 17 C 89 % 15.17 C
944 11-08-2015 06:35:00 17.1 C 88 % 15.1 C
945 11-08-2015 06:40:00 17.1 C 88 % 15.1 C
946 11-08-2015 06:45:00 17.2 C 88 % 15.2 C
947 11-08-2015 06:50:00 17.3 C 88 % 15.29 C
948 11-08-2015 06:55:00 17.3 C 88 % 15.29 C
949 11-08-2015 07:00:00 17.3 C 88 % 15.29 C
950 11-08-2015 07:05:00 17.4 C 88 % 15.39 C
Sensor: Nr:Datum:Temp:Feuchte:Taupunkt:
Aussen-T/F 951 11-08-2015 07:10:00 17.4 C 88 % 15.39 C
952 11-08-2015 07:15:00 17.4 C 88 % 15.39 C
953 11-08-2015 07:20:00 17.5 C 88 % 15.49 C
954 11-08-2015 07:25:00 17.6 C 88 % 15.59 C
955 11-08-2015 07:30:00 17.6 C 88 % 15.59 C
956 11-08-2015 07:35:00 17.7 C 88 % 15.69 C
957 11-08-2015 07:40:00 17.7 C 87 % 15.51 C
958 11-08-2015 07:45:00 17.8 C 87 % 15.61 C
959 11-08-2015 07:50:00 17.8 C 87 % 15.61 C
960 11-08-2015 07:55:00 17.8 C 87 % 15.61 C
961 11-08-2015 08:00:00 17.9 C 87 % 15.71 C
962 11-08-2015 08:05:00 17.9 C 87 % 15.71 C
963 11-08-2015 08:10:00 17.9 C 87 % 15.71 C
964 11-08-2015 08:15:00 18 C 87 % 15.8 C
965 11-08-2015 08:20:00 18.1 C 87 % 15.9 C
966 11-08-2015 08:25:00 18.1 C 87 % 15.9 C
967 11-08-2015 08:30:00 18.2 C 87 % 16 C
968 11-08-2015 08:35:00 18.2 C 87 % 16 C
969 11-08-2015 08:40:00 18.3 C 87 % 16.1 C
970 11-08-2015 08:45:00 18.4 C 86 % 16.02 C
971 11-08-2015 08:50:00 18.5 C 85 % 15.93 C
972 11-08-2015 08:55:00 18.6 C 86 % 16.21 C
973 11-08-2015 09:00:00 18.7 C 85 % 16.13 C
974 11-08-2015 09:05:00 18.8 C 84 % 16.04 C
975 11-08-2015 09:10:00 18.8 C 85 % 16.23 C
Sensor: Nr:Datum:Temp:Feuchte:Taupunkt:
Aussen-T/F 976 11-08-2015 09:15:00 18.9 C 84 % 16.14 C
977 11-08-2015 09:20:00 19 C 84 % 16.24 C
978 11-08-2015 09:25:00 19.1 C 83 % 16.15 C
979 11-08-2015 09:30:00 19.1 C 83 % 16.15 C
980 11-08-2015 09:35:00 19.2 C 83 % 16.24 C
981 11-08-2015 09:40:00 19.3 C 82 % 16.15 C
982 11-08-2015 09:45:00 19.3 C 82 % 16.15 C
983 11-08-2015 09:50:00 19.5 C 81 % 16.15 C
984 11-08-2015 09:55:00 19.7 C 81 % 16.35 C
985 11-08-2015 10:00:00 19.9 C 80 % 16.35 C
986 11-08-2015 10:05:00 20.1 C 80 % 16.54 C
987 11-08-2015 10:10:00 20.2 C 78 % 16.24 C
988 11-08-2015 10:15:00 20.3 C 78 % 16.34 C
989 11-08-2015 10:20:00 20.6 C 77 % 16.43 C
990 11-08-2015 10:25:00 20.7 C 76 % 16.32 C
991 11-08-2015 10:30:00 20.9 C 75 % 16.3 C
992 11-08-2015 10:35:00 21.2 C 76 % 16.8 C
993 11-08-2015 10:40:00 21.4 C 74 % 16.57 C
994 11-08-2015 10:45:00 21.6 C 73 % 16.55 C
995 11-08-2015 10:50:00 21.8 C 71 % 16.31 C
996 11-08-2015 10:55:00 21.8 C 72 % 16.53 C
997 11-08-2015 11:00:00 21.9 C 72 % 16.62 C
998 11-08-2015 11:05:00 22 C 72 % 16.72 C
999 11-08-2015 11:10:00 22.2 C 72 % 16.91 C
1000 11-08-2015 11:15:00 22.6 C 69 % 16.62 C
Sensor: Nr:Datum:Temp:Feuchte:Taupunkt:
Aussen-T/F 1001 11-08-2015 11:20:00 22.8 C 69 % 16.82 C
1002 11-08-2015 11:25:00 23.1 C 67 % 16.64 C
1003 11-08-2015 11:30:00 23.1 C 67 % 16.64 C
1004 11-08-2015 11:35:00 23.2 C 67 % 16.73 C
1005 11-08-2015 11:40:00 23.3 C 66 % 16.59 C
1006 11-08-2015 11:45:00 23.4 C 64 % 16.2 C
1007 11-08-2015 11:50:00 23.4 C 66 % 16.69 C
1008 11-08-2015 11:55:00 23.5 C 65 % 16.54 C
1009 11-08-2015 12:00:00 23.7 C 65 % 16.73 C
1010 11-08-2015 12:05:00 24.1 C 65 % 17.11 C
1011 11-08-2015 12:10:00 24.4 C 62 % 16.65 C
1012 11-08-2015 12:15:00 24.5 C 64 % 17.24 C
1013 11-08-2015 12:20:00 25.1 C 62 % 17.31 C
1014 11-08-2015 12:25:00 25.4 C 62 % 17.59 C
1015 11-08-2015 12:30:00 25.4 C 63 % 17.84 C
1016 11-08-2015 12:35:00 25.4 C 63 % 17.84 C
1017 11-08-2015 12:40:00 25.4 C 63 % 17.84 C
1018 11-08-2015 12:45:00 25.7 C 63 % 18.13 C
1019 11-08-2015 12:50:00 25.7 C 62 % 17.87 C
1020 11-08-2015 12:55:00 25.7 C 62 % 17.87 C
1021 11-08-2015 13:00:00 25.6 C 63 % 18.03 C
1022 11-08-2015 13:05:00 25.6 C 63 % 18.03 C
1023 11-08-2015 13:10:00 25.6 C 64 % 18.28 C
1024 11-08-2015 13:15:00 25.6 C 62 % 17.78 C
1025 11-08-2015 13:20:00 25.3 C 65 % 18.25 C
Sensor: Nr:Datum:Temp:Feuchte:Taupunkt:
Aussen-T/F 1026 11-08-2015 13:25:00 25.3 C 64 % 18 C
1027 11-08-2015 13:30:00 25.8 C 64 % 18.47 C
1028 11-08-2015 13:35:00 26.3 C 60 % 17.91 C
1029 11-08-2015 13:40:00 26.6 C 59 % 17.93 C
1030 11-08-2015 13:45:00 27 C 58 % 18.03 C
1031 11-08-2015 13:50:00 27.4 C 55 % 17.56 C
1032 11-08-2015 13:55:00 27.3 C 52 % 16.58 C
1033 11-08-2015 14:00:00 27.2 C 53 % 16.79 C
1034 11-08-2015 14:05:00 27.3 C 54 % 17.18 C
1035 11-08-2015 14:10:00 27.6 C 54 % 17.45 C
1036 11-08-2015 14:15:00 27.6 C 52 % 16.86 C
1037 11-08-2015 14:20:00 27.4 C 52 % 16.67 C
1038 11-08-2015 14:25:00 27.5 C 53 % 17.07 C
1039 11-08-2015 14:30:00 27.6 C 53 % 17.16 C
1040 11-08-2015 14:35:00 27.8 C 50 % 16.42 C
1041 11-08-2015 14:40:00 27.8 C 51 % 16.73 C
1042 11-08-2015 14:45:00 27.5 C 51 % 16.46 C
1043 11-08-2015 14:50:00 27.2 C 51 % 16.18 C
1044 11-08-2015 14:55:00 27.2 C 53 % 16.79 C
1045 11-08-2015 15:00:00 27.2 C 52 % 16.49 C
1046 11-08-2015 15:05:00 27.1 C 53 % 16.7 C
1047 11-08-2015 15:10:00 27.2 C 54 % 17.08 C
1048 11-08-2015 15:15:00 27.3 C 52 % 16.58 C
1049 11-08-2015 15:20:00 27.4 C 53 % 16.97 C
1050 11-08-2015 15:25:00 27.4 C 54 % 17.27 C
Sensor: Nr:Datum:Temp:Feuchte:Taupunkt:
Aussen-T/F 1051 11-08-2015 15:30:00 27.4 C 54 % 17.27 C
1052 11-08-2015 15:35:00 27.4 C 54 % 17.27 C
1053 11-08-2015 15:40:00 27.2 C 53 % 16.79 C
1054 11-08-2015 15:45:00 27.1 C 55 % 17.28 C
1055 11-08-2015 15:50:00 27.1 C 55 % 17.28 C
1056 11-08-2015 15:55:00 27.1 C 57 % 17.85 C
1057 11-08-2015 16:00:00 27.1 C 57 % 17.85 C
1058 11-08-2015 16:05:00 27.2 C 58 % 18.22 C
1059 11-08-2015 16:10:00 27.3 C 57 % 18.03 C
1060 11-08-2015 16:15:00 27.3 C 57 % 18.03 C
1061 11-08-2015 16:20:00 27.4 C 57 % 18.13 C
1062 11-08-2015 16:25:00 27.4 C 57 % 18.13 C
1063 11-08-2015 16:30:00 27.6 C 58 % 18.59 C
1064 11-08-2015 16:35:00 27.6 C 58 % 18.59 C
1065 11-08-2015 16:40:00 27.6 C 58 % 18.59 C
1066 11-08-2015 16:45:00 27.8 C 60 % 19.32 C
1067 11-08-2015 16:50:00 28.2 C 58 % 19.15 C
1068 11-08-2015 16:55:00 28.3 C 57 % 18.96 C
1069 11-08-2015 17:00:00 28.3 C 56 % 18.68 C
1070 11-08-2015 17:05:00 28.3 C 57 % 18.96 C
1071 11-08-2015 17:10:00 28.4 C 58 % 19.34 C
1072 11-08-2015 17:15:00 28.4 C 56 % 18.77 C
1073 11-08-2015 17:20:00 28.4 C 56 % 18.77 C
1074 11-08-2015 17:25:00 28.3 C 57 % 18.96 C
1075 11-08-2015 17:30:00 28.3 C 58 % 19.24 C
Sensor: Nr:Datum:Temp:Feuchte:Taupunkt:
Aussen-T/F 1076 11-08-2015 17:35:00 28.3 C 57 % 18.96 C
1077 11-08-2015 17:40:00 28.1 C 57 % 18.78 C
1078 11-08-2015 17:45:00 27.9 C 58 % 18.87 C
1079 11-08-2015 17:50:00 28.1 C 58 % 19.06 C
1080 11-08-2015 17:55:00 28.1 C 58 % 19.06 C
1081 11-08-2015 18:00:00 27.8 C 59 % 19.05 C
1082 11-08-2015 18:05:00 27.8 C 59 % 19.05 C
1083 11-08-2015 18:10:00 28.1 C 59 % 19.33 C
1084 11-08-2015 18:15:00 28.3 C 57 % 18.96 C
1085 11-08-2015 18:20:00 28.3 C 57 % 18.96 C
1086 11-08-2015 18:25:00 28.2 C 57 % 18.87 C
1087 11-08-2015 18:30:00 28.1 C 57 % 18.78 C
1088 11-08-2015 18:35:00 27.8 C 58 % 18.78 C
1089 11-08-2015 18:40:00 27.4 C 59 % 18.68 C
1090 11-08-2015 18:45:00 27.3 C 60 % 18.85 C
1091 11-08-2015 18:50:00 27.2 C 60 % 18.76 C
1092 11-08-2015 18:55:00 26.9 C 61 % 18.74 C
1093 11-08-2015 19:00:00 26.6 C 62 % 18.72 C
1094 11-08-2015 19:05:00 26.4 C 62 % 18.53 C
1095 11-08-2015 19:10:00 26.3 C 62 % 18.44 C
1096 11-08-2015 19:15:00 26.1 C 62 % 18.25 C
1097 11-08-2015 19:20:00 25.9 C 63 % 18.31 C
1098 11-08-2015 19:25:00 25.8 C 63 % 18.22 C
1099 11-08-2015 19:30:00 25.8 C 63 % 18.22 C
1100 11-08-2015 19:35:00 25.7 C 64 % 18.38 C
Sensor: Nr:Datum:Temp:Feuchte:Taupunkt:
Aussen-T/F 1101 11-08-2015 19:40:00 25.7 C 63 % 18.13 C
1102 11-08-2015 19:45:00 25.6 C 63 % 18.03 C
1103 11-08-2015 19:50:00 25.5 C 64 % 18.19 C
1104 11-08-2015 19:55:00 25.4 C 64 % 18.09 C
1105 11-08-2015 20:00:00 25.3 C 65 % 18.25 C
1106 11-08-2015 20:05:00 25.1 C 65 % 18.06 C
1107 11-08-2015 20:10:00 24.9 C 66 % 18.11 C
1108 11-08-2015 20:15:00 24.8 C 66 % 18.01 C
1109 11-08-2015 20:20:00 24.7 C 67 % 18.16 C
1110 11-08-2015 20:25:00 24.4 C 67 % 17.87 C
1111 11-08-2015 20:30:00 24.3 C 68 % 18.01 C
1112 11-08-2015 20:35:00 24.2 C 68 % 17.92 C
1113 11-08-2015 20:40:00 24.1 C 70 % 18.29 C
1114 11-08-2015 20:45:00 23.9 C 72 % 18.54 C
1115 11-08-2015 20:50:00 23.7 C 73 % 18.57 C
1116 11-08-2015 20:55:00 23.4 C 73 % 18.28 C
1117 11-08-2015 21:00:00 23.3 C 74 % 18.4 C
1118 11-08-2015 21:05:00 23.2 C 75 % 18.52 C
1119 11-08-2015 21:10:00 23.1 C 75 % 18.43 C
1120 11-08-2015 21:15:00 23 C 75 % 18.33 C
1121 11-08-2015 21:20:00 22.9 C 74 % 18.02 C
1122 11-08-2015 21:25:00 23.1 C 73 % 17.99 C
1123 11-08-2015 21:30:00 23.3 C 73 % 18.19 C
1124 11-08-2015 21:35:00 23.3 C 73 % 18.19 C
1125 11-08-2015 21:40:00 23.2 C 73 % 18.09 C
Sensor: Nr:Datum:Temp:Feuchte:Taupunkt:
Aussen-T/F 1126 11-08-2015 21:45:00 23.2 C 73 % 18.09 C
1127 11-08-2015 21:50:00 23.2 C 73 % 18.09 C
1128 11-08-2015 21:55:00 23.1 C 75 % 18.43 C
1129 11-08-2015 22:00:00 22.9 C 75 % 18.23 C
1130 11-08-2015 22:05:00 22.8 C 75 % 18.14 C
1131 11-08-2015 22:10:00 22.8 C 75 % 18.14 C
1132 11-08-2015 22:15:00 22.7 C 75 % 18.04 C
1133 11-08-2015 22:20:00 22.6 C 76 % 18.15 C
1134 11-08-2015 22:25:00 22.3 C 76 % 17.86 C
1135 11-08-2015 22:30:00 22.1 C 77 % 17.88 C
1136 11-08-2015 22:35:00 22 C 77 % 17.78 C
1137 11-08-2015 22:40:00 21.8 C 78 % 17.79 C
1138 11-08-2015 22:45:00 21.6 C 79 % 17.8 C
1139 11-08-2015 22:50:00 21.4 C 80 % 17.81 C
1140 11-08-2015 22:55:00 21.2 C 80 % 17.61 C
1141 11-08-2015 23:00:00 21 C 81 % 17.61 C
1142 11-08-2015 23:05:00 20.8 C 82 % 17.61 C
1143 11-08-2015 23:10:00 20.7 C 82 % 17.52 C
1144 11-08-2015 23:15:00 20.7 C 82 % 17.52 C
1145 11-08-2015 23:20:00 20.6 C 82 % 17.42 C
1146 11-08-2015 23:25:00 20.6 C 83 % 17.61 C
1147 11-08-2015 23:30:00 20.5 C 83 % 17.51 C
1148 11-08-2015 23:35:00 20.4 C 83 % 17.42 C
1149 11-08-2015 23:40:00 20.4 C 83 % 17.42 C
1150 11-08-2015 23:45:00 20.3 C 84 % 17.51 C
Sensor: Nr:Datum:Temp:Feuchte:Taupunkt:
Aussen-T/F 1151 11-08-2015 23:50:00 20.2 C 84 % 17.41 C
1152 11-08-2015 23:55:00 20.2 C 84 % 17.41 C
1153 12-08-2015 00:00:00 20.2 C 84 % 17.41 C
1154 12-08-2015 00:05:00 20.2 C 84 % 17.41 C
1155 12-08-2015 00:10:00 20.3 C 85 % 17.7 C
1156 12-08-2015 00:15:00 20.3 C 84 % 17.51 C
1157 12-08-2015 00:20:00 20.3 C 84 % 17.51 C
1158 12-08-2015 00:25:00 20.4 C 84 % 17.61 C
1159 12-08-2015 00:30:00 20.6 C 83 % 17.61 C
1160 12-08-2015 00:35:00 20.7 C 83 % 17.71 C
1161 12-08-2015 00:40:00 20.7 C 83 % 17.71 C
1162 12-08-2015 00:45:00 20.7 C 83 % 17.71 C
1163 12-08-2015 00:50:00 20.6 C 83 % 17.61 C
1164 12-08-2015 00:55:00 20.6 C 83 % 17.61 C
1165 12-08-2015 01:00:00 20.5 C 83 % 17.51 C
1166 12-08-2015 01:05:00 20.4 C 83 % 17.42 C
1167 12-08-2015 01:10:00 20.3 C 83 % 17.32 C
1168 12-08-2015 01:15:00 20.2 C 83 % 17.22 C
1169 12-08-2015 01:20:00 20.1 C 83 % 17.12 C
1170 12-08-2015 01:25:00 19.9 C 84 % 17.12 C
1171 12-08-2015 01:30:00 19.9 C 84 % 17.12 C
1172 12-08-2015 01:35:00 19.8 C 84 % 17.02 C
1173 12-08-2015 01:40:00 19.7 C 85 % 17.11 C
1174 12-08-2015 01:45:00 19.7 C 85 % 17.11 C
1175 12-08-2015 01:50:00 19.6 C 85 % 17.01 C
Sensor: Nr:Datum:Temp:Feuchte:Taupunkt:
Aussen-T/F 1176 12-08-2015 01:55:00 19.6 C 85 % 17.01 C
1177 12-08-2015 02:00:00 19.5 C 85 % 16.91 C
1178 12-08-2015 02:05:00 19.4 C 86 % 17 C
1179 12-08-2015 02:10:00 19.3 C 86 % 16.9 C
1180 12-08-2015 02:15:00 19.3 C 86 % 16.9 C
1181 12-08-2015 02:20:00 19.2 C 87 % 16.98 C
1182 12-08-2015 02:25:00 19.1 C 86 % 16.7 C
1183 12-08-2015 02:30:00 19 C 87 % 16.79 C
1184 12-08-2015 02:35:00 18.9 C 87 % 16.69 C
1185 12-08-2015 02:40:00 18.9 C 87 % 16.69 C
1186 12-08-2015 02:45:00 18.8 C 87 % 16.59 C
1187 12-08-2015 02:50:00 18.8 C 88 % 16.77 C
1188 12-08-2015 02:55:00 18.7 C 88 % 16.67 C
1189 12-08-2015 03:00:00 18.7 C 88 % 16.67 C
1190 12-08-2015 03:05:00 18.6 C 88 % 16.57 C
1191 12-08-2015 03:10:00 18.6 C 88 % 16.57 C
1192 12-08-2015 03:15:00 18.6 C 89 % 16.75 C
1193 12-08-2015 03:20:00 18.4 C 89 % 16.55 C
1194 12-08-2015 03:25:00 18.4 C 89 % 16.55 C
1195 12-08-2015 03:30:00 18.3 C 89 % 16.46 C
1196 12-08-2015 03:35:00 18.3 C 89 % 16.46 C
1197 12-08-2015 03:40:00 18.2 C 90 % 16.53 C
1198 12-08-2015 03:45:00 18.1 C 90 % 16.43 C
1199 12-08-2015 03:50:00 18.1 C 90 % 16.43 C
1200 12-08-2015 03:55:00 18 C 90 % 16.34 C
Sensor: Nr:Datum:Temp:Feuchte:Taupunkt:
Aussen-T/F 1201 12-08-2015 04:00:00 17.9 C 90 % 16.24 C
1202 12-08-2015 04:05:00 17.9 C 91 % 16.41 C
1203 12-08-2015 04:10:00 17.8 C 91 % 16.31 C
1204 12-08-2015 04:15:00 17.8 C 91 % 16.31 C
1205 12-08-2015 04:20:00 17.8 C 91 % 16.31 C
1206 12-08-2015 04:25:00 17.7 C 91 % 16.21 C
1207 12-08-2015 04:30:00 17.7 C 91 % 16.21 C
1208 12-08-2015 04:35:00 17.7 C 91 % 16.21 C
1209 12-08-2015 04:40:00 17.7 C 91 % 16.21 C
1210 12-08-2015 04:45:00 17.6 C 92 % 16.28 C
1211 12-08-2015 04:50:00 17.6 C 92 % 16.28 C
1212 12-08-2015 04:55:00 17.6 C 92 % 16.28 C
1213 12-08-2015 05:00:00 17.5 C 92 % 16.19 C
1214 12-08-2015 05:05:00 17.5 C 92 % 16.19 C
1215 12-08-2015 05:10:00 17.4 C 92 % 16.09 C
1216 12-08-2015 05:15:00 17.4 C 92 % 16.09 C
1217 12-08-2015 05:20:00 17.3 C 92 % 15.99 C
1218 12-08-2015 05:25:00 17.3 C 92 % 15.99 C
1219 12-08-2015 05:30:00 17.3 C 92 % 15.99 C
1220 12-08-2015 05:35:00 17.3 C 93 % 16.16 C
1221 12-08-2015 05:40:00 17.3 C 93 % 16.16 C
1222 12-08-2015 05:45:00 17.2 C 93 % 16.06 C
1223 12-08-2015 05:50:00 17.2 C 92 % 15.89 C
1224 12-08-2015 05:55:00 17.2 C 93 % 16.06 C
1225 12-08-2015 06:00:00 17.2 C 93 % 16.06 C
Sensor: Nr:Datum:Temp:Feuchte:Taupunkt:
Aussen-T/F 1226 12-08-2015 06:05:00 17.2 C 93 % 16.06 C
1227 12-08-2015 06:10:00 17.2 C 93 % 16.06 C
1228 12-08-2015 06:15:00 17.1 C 93 % 15.96 C
1229 12-08-2015 06:20:00 17.1 C 93 % 15.96 C
1230 12-08-2015 06:25:00 17.1 C 93 % 15.96 C
1231 12-08-2015 06:30:00 17.1 C 93 % 15.96 C
1232 12-08-2015 06:35:00 17.1 C 93 % 15.96 C
1233 12-08-2015 06:40:00 17 C 93 % 15.86 C
1234 12-08-2015 06:45:00 17.1 C 94 % 16.13 C
1235 12-08-2015 06:50:00 17.1 C 94 % 16.13 C
1236 12-08-2015 06:55:00 17.1 C 94 % 16.13 C
1237 12-08-2015 07:00:00 17.1 C 94 % 16.13 C
1238 12-08-2015 07:05:00 17.1 C 94 % 16.13 C
1239 12-08-2015 07:10:00 17.2 C 94 % 16.23 C
1240 12-08-2015 07:15:00 17.2 C 94 % 16.23 C
1241 12-08-2015 07:20:00 17.3 C 94 % 16.33 C
1242 12-08-2015 07:25:00 17.4 C 94 % 16.42 C
1243 12-08-2015 07:30:00 17.5 C 94 % 16.52 C
1244 12-08-2015 07:35:00 17.7 C 94 % 16.72 C
1245 12-08-2015 07:40:00 17.8 C 94 % 16.82 C
1246 12-08-2015 07:45:00 17.8 C 94 % 16.82 C
1247 12-08-2015 07:50:00 17.9 C 93 % 16.75 C
1248 12-08-2015 07:55:00 18.1 C 93 % 16.95 C
1249 12-08-2015 08:00:00 18.2 C 93 % 17.05 C
1250 12-08-2015 08:05:00 18.3 C 93 % 17.15 C
Sensor: Nr:Datum:Temp:Feuchte:Taupunkt:
Aussen-T/F 1251 12-08-2015 08:10:00 18.4 C 93 % 17.25 C
1252 12-08-2015 08:15:00 18.6 C 93 % 17.45 C
1253 12-08-2015 08:20:00 18.7 C 92 % 17.37 C
1254 12-08-2015 08:25:00 18.8 C 91 % 17.3 C
1255 12-08-2015 08:30:00 19 C 91 % 17.5 C
1256 12-08-2015 08:35:00 19.2 C 91 % 17.69 C
1257 12-08-2015 08:40:00 19.3 C 91 % 17.79 C
1258 12-08-2015 08:45:00 19.6 C 90 % 17.91 C
1259 12-08-2015 08:50:00 19.7 C 90 % 18.01 C
1260 12-08-2015 08:55:00 19.8 C 89 % 17.93 C
1261 12-08-2015 09:00:00 19.9 C 88 % 17.85 C
1262 12-08-2015 09:05:00 20.1 C 87 % 17.87 C
1263 12-08-2015 09:10:00 20.1 C 87 % 17.87 C
1264 12-08-2015 09:15:00 20.2 C 86 % 17.78 C
1265 12-08-2015 09:20:00 20.2 C 86 % 17.78 C
1266 12-08-2015 09:25:00 20.3 C 86 % 17.88 C
1267 12-08-2015 09:30:00 20.3 C 86 % 17.88 C
1268 12-08-2015 09:35:00 20.4 C 86 % 17.98 C
1269 12-08-2015 09:40:00 20.6 C 85 % 17.99 C
1270 12-08-2015 09:45:00 20.6 C 85 % 17.99 C
1271 12-08-2015 09:50:00 20.7 C 85 % 18.09 C
1272 12-08-2015 09:55:00 20.8 C 85 % 18.18 C
1273 12-08-2015 10:00:00 20.9 C 84 % 18.09 C
1274 12-08-2015 10:05:00 21 C 84 % 18.19 C
1275 12-08-2015 10:10:00 21.1 C 83 % 18.1 C
Sensor: Nr:Datum:Temp:Feuchte:Taupunkt:
Aussen-T/F 1276 12-08-2015 10:15:00 21.2 C 83 % 18.2 C
1277 12-08-2015 10:20:00 21.3 C 83 % 18.29 C
1278 12-08-2015 10:25:00 21.4 C 83 % 18.39 C
1279 12-08-2015 10:30:00 21.6 C 82 % 18.39 C
1280 12-08-2015 10:35:00 21.6 C 82 % 18.39 C
1281 12-08-2015 10:40:00 21.6 C 82 % 18.39 C
1282 12-08-2015 10:45:00 21.7 C 82 % 18.49 C
1283 12-08-2015 10:50:00 21.7 C 81 % 18.3 C
1284 12-08-2015 10:55:00 21.8 C 81 % 18.39 C
1285 12-08-2015 11:00:00 21.8 C 81 % 18.39 C
1286 12-08-2015 11:05:00 21.8 C 81 % 18.39 C
1287 12-08-2015 11:10:00 22 C 81 % 18.59 C
1288 12-08-2015 11:15:00 22.1 C 80 % 18.49 C
1289 12-08-2015 11:20:00 22.2 C 80 % 18.58 C
1290 12-08-2015 11:25:00 22.3 C 80 % 18.68 C
1291 12-08-2015 11:30:00 22.4 C 80 % 18.78 C
1292 12-08-2015 11:35:00 22.6 C 79 % 18.77 C
1293 12-08-2015 11:40:00 22.8 C 79 % 18.97 C
1294 12-08-2015 11:45:00 22.9 C 77 % 18.65 C
1295 12-08-2015 11:50:00 23.1 C 78 % 19.05 C
1296 12-08-2015 11:55:00 23.3 C 76 % 18.83 C
1297 12-08-2015 12:00:00 23.4 C 77 % 19.14 C
1298 12-08-2015 12:05:00 23.6 C 75 % 18.91 C
1299 12-08-2015 12:10:00 23.7 C 75 % 19 C
1300 12-08-2015 12:15:00 23.8 C 75 % 19.1 C
Sensor: Nr:Datum:Temp:Feuchte:Taupunkt:
Aussen-T/F 1301 12-08-2015 12:20:00 23.9 C 74 % 18.98 C
1302 12-08-2015 12:25:00 24.1 C 74 % 19.17 C
1303 12-08-2015 12:30:00 24.2 C 73 % 19.05 C
1304 12-08-2015 12:35:00 24.3 C 72 % 18.93 C
1305 12-08-2015 12:40:00 24.4 C 72 % 19.02 C
1306 12-08-2015 12:45:00 24.6 C 72 % 19.21 C
1307 12-08-2015 12:50:00 24.7 C 72 % 19.31 C
1308 12-08-2015 12:55:00 24.8 C 71 % 19.18 C
1309 12-08-2015 13:00:00 24.9 C 71 % 19.28 C
1310 12-08-2015 13:05:00 25.1 C 71 % 19.47 C
1311 12-08-2015 13:10:00 25.3 C 70 % 19.43 C
1312 12-08-2015 13:15:00 25.3 C 70 % 19.43 C
1313 12-08-2015 13:20:00 25.3 C 69 % 19.2 C
1314 12-08-2015 13:25:00 25.4 C 70 % 19.53 C
1315 12-08-2015 13:30:00 25.7 C 69 % 19.58 C
1316 12-08-2015 13:35:00 25.9 C 69 % 19.77 C
1317 12-08-2015 13:40:00 26.3 C 69 % 20.16 C
1318 12-08-2015 13:45:00 26.5 C 67 % 19.87 C
1319 12-08-2015 13:50:00 26.8 C 65 % 19.67 C
1320 12-08-2015 13:55:00 27 C 66 % 20.1 C
1321 12-08-2015 14:00:00 27.1 C 66 % 20.2 C
1322 12-08-2015 14:05:00 27 C 66 % 20.1 C
1323 12-08-2015 14:10:00 27.1 C 65 % 19.95 C
1324 12-08-2015 14:15:00 27.2 C 65 % 20.04 C
1325 12-08-2015 14:20:00 27.2 C 64 % 19.79 C
Sensor: Nr:Datum:Temp:Feuchte:Taupunkt:
Aussen-T/F 1326 12-08-2015 14:25:00 27.1 C 65 % 19.95 C
1327 12-08-2015 14:30:00 27.3 C 65 % 20.14 C
1328 12-08-2015 14:35:00 27.6 C 65 % 20.42 C
1329 12-08-2015 14:40:00 27.9 C 63 % 20.2 C
1330 12-08-2015 14:45:00 28.2 C 61 % 19.96 C
1331 12-08-2015 14:50:00 28.3 C 62 % 20.32 C
1332 12-08-2015 14:55:00 28.6 C 61 % 20.34 C
1333 12-08-2015 15:00:00 28.6 C 61 % 20.34 C
1334 12-08-2015 15:05:00 28.7 C 61 % 20.43 C
1335 12-08-2015 15:10:00 28.9 C 60 % 20.35 C
1336 12-08-2015 15:15:00 28.9 C 59 % 20.08 C
1337 12-08-2015 15:20:00 29.2 C 60 % 20.63 C
1338 12-08-2015 15:25:00 29.6 C 57 % 20.17 C
1339 12-08-2015 15:30:00 29.6 C 57 % 20.17 C
1340 12-08-2015 15:35:00 29.7 C 58 % 20.55 C
1341 12-08-2015 15:40:00 29.8 C 57 % 20.36 C
1342 12-08-2015 15:45:00 29.9 C 58 % 20.74 C
1343 12-08-2015 15:50:00 29.9 C 57 % 20.45 C
1344 12-08-2015 15:55:00 30.3 C 56 % 20.54 C
1345 12-08-2015 16:00:00 30.4 C 55 % 20.34 C
1346 12-08-2015 16:05:00 30.5 C 54 % 20.13 C
1347 12-08-2015 16:10:00 30.7 C 54 % 20.32 C
1348 12-08-2015 16:15:00 30.7 C 54 % 20.32 C
1349 12-08-2015 16:20:00 30.7 C 54 % 20.32 C
1350 12-08-2015 16:25:00 30.7 C 54 % 20.32 C
Sensor: Nr:Datum:Temp:Feuchte:Taupunkt:
Aussen-T/F 1351 12-08-2015 16:30:00 30.6 C 55 % 20.52 C
1352 12-08-2015 16:35:00 30.3 C 56 % 20.54 C
1353 12-08-2015 16:40:00 30.2 C 55 % 20.15 C
1354 12-08-2015 16:45:00 30.1 C 55 % 20.06 C
1355 12-08-2015 16:50:00 30.3 C 56 % 20.54 C
1356 12-08-2015 16:55:00 30.6 C 55 % 20.52 C
1357 12-08-2015 17:00:00 30.8 C 54 % 20.41 C
1358 12-08-2015 17:05:00 30.9 C 54 % 20.5 C
1359 12-08-2015 17:10:00 30.9 C 54 % 20.5 C
1360 12-08-2015 17:15:00 30.7 C 54 % 20.32 C
1361 12-08-2015 17:20:00 30.6 C 54 % 20.23 C
1362 12-08-2015 17:25:00 30.5 C 55 % 20.43 C
1363 12-08-2015 17:30:00 30.6 C 54 % 20.23 C
1364 12-08-2015 17:35:00 30.6 C 54 % 20.23 C
1365 12-08-2015 17:40:00 30.6 C 53 % 19.92 C
1366 12-08-2015 17:45:00 30.3 C 53 % 19.65 C
1367 12-08-2015 17:50:00 30.1 C 56 % 20.35 C
1368 12-08-2015 17:55:00 29.8 C 57 % 20.36 C
1369 12-08-2015 18:00:00 29.5 C 57 % 20.08 C
1370 12-08-2015 18:05:00 29.3 C 58 % 20.18 C
1371 12-08-2015 18:10:00 29.6 C 58 % 20.46 C
1372 12-08-2015 18:15:00 29.9 C 57 % 20.45 C
1373 12-08-2015 18:20:00 30.1 C 57 % 20.64 C
1374 12-08-2015 18:25:00 30.1 C 58 % 20.92 C
1375 12-08-2015 18:30:00 29.8 C 58 % 20.64 C
Sensor: Nr:Datum:Temp:Feuchte:Taupunkt:
Aussen-T/F 1376 12-08-2015 18:35:00 29.8 C 58 % 20.64 C
1377 12-08-2015 18:40:00 29.8 C 58 % 20.64 C
1378 12-08-2015 18:45:00 30 C 57 % 20.55 C
1379 12-08-2015 18:50:00 30.1 C 57 % 20.64 C
1380 12-08-2015 18:55:00 30.1 C 58 % 20.92 C
1381 12-08-2015 19:00:00 30.1 C 58 % 20.92 C
1382 12-08-2015 19:05:00 30.2 C 57 % 20.73 C
1383 12-08-2015 19:10:00 30.1 C 57 % 20.64 C
1384 12-08-2015 19:15:00 29.9 C 58 % 20.74 C
1385 12-08-2015 19:20:00 29.7 C 59 % 20.83 C
1386 12-08-2015 19:25:00 29.6 C 59 % 20.73 C
1387 12-08-2015 19:30:00 29.4 C 60 % 20.82 C
1388 12-08-2015 19:35:00 29.3 C 61 % 20.99 C
1389 12-08-2015 19:40:00 29.1 C 61 % 20.81 C
1390 12-08-2015 19:45:00 28.8 C 61 % 20.52 C
1391 12-08-2015 19:50:00 28.6 C 62 % 20.6 C
1392 12-08-2015 19:55:00 28.3 C 63 % 20.58 C
1393 12-08-2015 20:00:00 28.2 C 64 % 20.74 C
1394 12-08-2015 20:05:00 27.9 C 65 % 20.71 C
1395 12-08-2015 20:10:00 27.8 C 65 % 20.61 C
1396 12-08-2015 20:15:00 27.6 C 65 % 20.42 C
1397 12-08-2015 20:20:00 27.4 C 66 % 20.48 C
1398 12-08-2015 20:25:00 27.2 C 67 % 20.54 C
1399 12-08-2015 20:30:00 27 C 68 % 20.59 C
1400 12-08-2015 20:35:00 26.8 C 68 % 20.4 C
Sensor: Nr:Datum:Temp:Feuchte:Taupunkt:
Aussen-T/F 1401 12-08-2015 20:40:00 26.7 C 69 % 20.54 C
1402 12-08-2015 20:45:00 26.4 C 71 % 20.71 C
1403 12-08-2015 20:50:00 25.9 C 72 % 20.46 C
1404 12-08-2015 20:55:00 25.7 C 72 % 20.27 C
1405 12-08-2015 21:00:00 25.6 C 73 % 20.4 C
1406 12-08-2015 21:05:00 25.3 C 74 % 20.33 C
1407 12-08-2015 21:10:00 25.1 C 75 % 20.35 C
1408 12-08-2015 21:15:00 25 C 75 % 20.26 C
1409 12-08-2015 21:20:00 24.8 C 76 % 20.28 C
1410 12-08-2015 21:25:00 24.4 C 77 % 20.1 C
1411 12-08-2015 21:30:00 24.1 C 79 % 20.23 C
1412 12-08-2015 21:35:00 23.8 C 80 % 20.14 C
1413 12-08-2015 21:40:00 23.6 C 81 % 20.15 C
1414 12-08-2015 21:45:00 23.4 C 81 % 19.95 C
1415 12-08-2015 21:50:00 23.3 C 82 % 20.05 C
1416 12-08-2015 21:55:00 23.3 C 82 % 20.05 C
1417 12-08-2015 22:00:00 23.2 C 82 % 19.95 C
1418 12-08-2015 22:05:00 23.2 C 82 % 19.95 C
1419 12-08-2015 22:10:00 23.2 C 82 % 19.95 C
1420 12-08-2015 22:15:00 23.1 C 82 % 19.86 C
1421 12-08-2015 22:20:00 23.1 C 83 % 20.05 C
1422 12-08-2015 22:25:00 23 C 83 % 19.96 C
1423 12-08-2015 22:30:00 23.1 C 83 % 20.05 C
1424 12-08-2015 22:35:00 23.1 C 83 % 20.05 C
1425 12-08-2015 22:40:00 23.1 C 83 % 20.05 C
Sensor: Nr:Datum:Temp:Feuchte:Taupunkt:
Aussen-T/F 1426 12-08-2015 22:45:00 23 C 83 % 19.96 C
1427 12-08-2015 22:50:00 22.9 C 84 % 20.05 C
1428 12-08-2015 22:55:00 22.8 C 84 % 19.95 C
1429 12-08-2015 23:00:00 22.6 C 84 % 19.76 C
1430 12-08-2015 23:05:00 22.4 C 85 % 19.75 C
1431 12-08-2015 23:10:00 22.3 C 85 % 19.65 C
1432 12-08-2015 23:15:00 22.3 C 86 % 19.84 C
1433 12-08-2015 23:20:00 22.2 C 86 % 19.75 C
1434 12-08-2015 23:25:00 22.1 C 86 % 19.65 C
1435 12-08-2015 23:30:00 22 C 87 % 19.74 C
1436 12-08-2015 23:35:00 21.9 C 87 % 19.64 C
1437 12-08-2015 23:40:00 21.8 C 87 % 19.54 C
1438 12-08-2015 23:45:00 21.7 C 88 % 19.62 C
1439 12-08-2015 23:50:00 21.7 C 88 % 19.62 C
1440 12-08-2015 23:55:00 21.6 C 88 % 19.53 C
1441 13-08-2015 00:00:00 21.6 C 88 % 19.53 C
1442 13-08-2015 00:05:00 21.5 C 88 % 19.43 C
1443 13-08-2015 00:10:00 21.4 C 89 % 19.51 C
1444 13-08-2015 00:15:00 21.3 C 89 % 19.41 C
1445 13-08-2015 00:20:00 21.3 C 89 % 19.41 C
1446 13-08-2015 00:25:00 21.2 C 89 % 19.31 C
1447 13-08-2015 00:30:00 21.2 C 89 % 19.31 C
1448 13-08-2015 00:35:00 21.1 C 89 % 19.22 C
1449 13-08-2015 00:40:00 21.1 C 90 % 19.39 C
1450 13-08-2015 00:45:00 21.1 C 90 % 19.39 C
Sensor: Nr:Datum:Temp:Feuchte:Taupunkt:
Aussen-T/F 1451 13-08-2015 00:50:00 21 C 90 % 19.3 C
1452 13-08-2015 00:55:00 20.9 C 90 % 19.2 C
1453 13-08-2015 01:00:00 20.9 C 90 % 19.2 C
1454 13-08-2015 01:05:00 20.8 C 90 % 19.1 C
1455 13-08-2015 01:10:00 20.8 C 90 % 19.1 C
1456 13-08-2015 01:15:00 20.7 C 90 % 19 C
1457 13-08-2015 01:20:00 20.7 C 90 % 19 C
1458 13-08-2015 01:25:00 20.6 C 90 % 18.9 C
1459 13-08-2015 01:30:00 20.5 C 90 % 18.8 C
1460 13-08-2015 01:35:00 20.4 C 91 % 18.88 C
1461 13-08-2015 01:40:00 20.3 C 91 % 18.78 C
1462 13-08-2015 01:45:00 20.3 C 91 % 18.78 C
1463 13-08-2015 01:50:00 20.2 C 91 % 18.68 C
1464 13-08-2015 01:55:00 20.1 C 91 % 18.58 C
1465 13-08-2015 02:00:00 20 C 91 % 18.49 C
1466 13-08-2015 02:05:00 19.9 C 92 % 18.56 C
1467 13-08-2015 02:10:00 19.9 C 92 % 18.56 C
1468 13-08-2015 02:15:00 19.8 C 92 % 18.46 C
1469 13-08-2015 02:20:00 19.7 C 91 % 18.19 C
1470 13-08-2015 02:25:00 19.6 C 91 % 18.09 C
1471 13-08-2015 02:30:00 19.6 C 92 % 18.26 C
1472 13-08-2015 02:35:00 19.4 C 92 % 18.07 C
1473 13-08-2015 02:40:00 19.4 C 92 % 18.07 C
1474 13-08-2015 02:45:00 19.4 C 92 % 18.07 C
1475 13-08-2015 02:50:00 19.3 C 92 % 17.97 C
Sensor: Nr:Datum:Temp:Feuchte:Taupunkt:
Aussen-T/F 1476 13-08-2015 02:55:00 19.3 C 92 % 17.97 C
1477 13-08-2015 03:00:00 19.3 C 92 % 17.97 C
1478 13-08-2015 03:05:00 19.3 C 92 % 17.97 C
1479 13-08-2015 03:10:00 19.2 C 92 % 17.87 C
1480 13-08-2015 03:15:00 19.1 C 92 % 17.77 C
1481 13-08-2015 03:20:00 19.1 C 92 % 17.77 C
1482 13-08-2015 03:25:00 19.1 C 92 % 17.77 C
1483 13-08-2015 03:30:00 19 C 92 % 17.67 C
1484 13-08-2015 03:35:00 18.9 C 92 % 17.57 C
1485 13-08-2015 03:40:00 18.8 C 92 % 17.47 C
1486 13-08-2015 03:45:00 18.8 C 92 % 17.47 C
1487 13-08-2015 03:50:00 18.7 C 92 % 17.37 C
1488 13-08-2015 03:55:00 18.8 C 92 % 17.47 C
1489 13-08-2015 04:00:00 18.8 C 93 % 17.64 C
1490 13-08-2015 04:05:00 18.8 C 92 % 17.47 C
1491 13-08-2015 04:10:00 18.7 C 92 % 17.37 C
1492 13-08-2015 04:15:00 18.7 C 92 % 17.37 C
1493 13-08-2015 04:20:00 18.6 C 92 % 17.27 C
1494 13-08-2015 04:25:00 18.6 C 92 % 17.27 C
1495 13-08-2015 04:30:00 18.4 C 92 % 17.08 C
1496 13-08-2015 04:35:00 18.4 C 92 % 17.08 C
1497 13-08-2015 04:40:00 18.4 C 92 % 17.08 C
1498 13-08-2015 04:45:00 18.3 C 92 % 16.98 C
1499 13-08-2015 04:50:00 18.3 C 92 % 16.98 C
1500 13-08-2015 04:55:00 18.2 C 92 % 16.88 C
Sensor: Nr:Datum:Temp:Feuchte:Taupunkt:
Aussen-T/F 1501 13-08-2015 05:00:00 18.2 C 92 % 16.88 C
1502 13-08-2015 05:05:00 18.2 C 92 % 16.88 C
1503 13-08-2015 05:10:00 18.1 C 92 % 16.78 C
1504 13-08-2015 05:15:00 18.1 C 92 % 16.78 C
1505 13-08-2015 05:20:00 18.1 C 93 % 16.95 C
1506 13-08-2015 05:25:00 18 C 93 % 16.85 C
1507 13-08-2015 05:30:00 18 C 93 % 16.85 C
1508 13-08-2015 05:35:00 17.9 C 92 % 16.58 C
1509 13-08-2015 05:40:00 17.9 C 93 % 16.75 C
1510 13-08-2015 05:45:00 17.8 C 93 % 16.65 C
1511 13-08-2015 05:50:00 17.8 C 93 % 16.65 C
1512 13-08-2015 05:55:00 17.9 C 93 % 16.75 C
1513 13-08-2015 06:00:00 17.9 C 93 % 16.75 C
1514 13-08-2015 06:05:00 17.9 C 93 % 16.75 C
1515 13-08-2015 06:10:00 17.8 C 93 % 16.65 C
1516 13-08-2015 06:15:00 17.8 C 93 % 16.65 C
1517 13-08-2015 06:20:00 17.8 C 93 % 16.65 C
1518 13-08-2015 06:25:00 17.8 C 93 % 16.65 C
1519 13-08-2015 06:30:00 17.8 C 93 % 16.65 C
1520 13-08-2015 06:35:00 17.8 C 93 % 16.65 C
1521 13-08-2015 06:40:00 17.8 C 93 % 16.65 C
1522 13-08-2015 06:45:00 17.8 C 93 % 16.65 C
1523 13-08-2015 06:50:00 17.7 C 93 % 16.55 C
1524 13-08-2015 06:55:00 17.7 C 93 % 16.55 C
1525 13-08-2015 07:00:00 17.7 C 93 % 16.55 C
Sensor: Nr:Datum:Temp:Feuchte:Taupunkt:
Aussen-T/F 1526 13-08-2015 07:05:00 17.7 C 93 % 16.55 C
1527 13-08-2015 07:10:00 17.8 C 93 % 16.65 C
1528 13-08-2015 07:15:00 17.8 C 93 % 16.65 C
1529 13-08-2015 07:20:00 17.9 C 93 % 16.75 C
1530 13-08-2015 07:25:00 17.9 C 93 % 16.75 C
1531 13-08-2015 07:30:00 17.9 C 92 % 16.58 C
1532 13-08-2015 07:35:00 17.9 C 92 % 16.58 C
1533 13-08-2015 07:40:00 18.1 C 93 % 16.95 C
1534 13-08-2015 07:45:00 18.1 C 93 % 16.95 C
1535 13-08-2015 07:50:00 18.2 C 93 % 17.05 C
1536 13-08-2015 07:55:00 18.2 C 92 % 16.88 C
1537 13-08-2015 08:00:00 18.3 C 92 % 16.98 C
1538 13-08-2015 08:05:00 18.4 C 92 % 17.08 C
1539 13-08-2015 08:10:00 18.4 C 92 % 17.08 C
1540 13-08-2015 08:15:00 18.6 C 92 % 17.27 C
1541 13-08-2015 08:20:00 18.6 C 92 % 17.27 C
1542 13-08-2015 08:25:00 18.7 C 92 % 17.37 C
1543 13-08-2015 08:30:00 18.8 C 92 % 17.47 C
1544 13-08-2015 08:35:00 18.9 C 91 % 17.4 C
1545 13-08-2015 08:40:00 19 C 91 % 17.5 C
1546 13-08-2015 08:45:00 19.1 C 91 % 17.6 C
1547 13-08-2015 08:50:00 19.2 C 91 % 17.69 C
1548 13-08-2015 08:55:00 19.3 C 91 % 17.79 C
1549 13-08-2015 09:00:00 19.4 C 90 % 17.72 C
1550 13-08-2015 09:05:00 19.6 C 90 % 17.91 C
Sensor: Nr:Datum:Temp:Feuchte:Taupunkt:
Aussen-T/F 1551 13-08-2015 09:10:00 19.8 C 90 % 18.11 C
1552 13-08-2015 09:15:00 19.9 C 88 % 17.85 C
1553 13-08-2015 09:20:00 20.2 C 88 % 18.15 C
1554 13-08-2015 09:25:00 20.3 C 87 % 18.06 C
1555 13-08-2015 09:30:00 20.5 C 86 % 18.08 C
1556 13-08-2015 09:35:00 20.7 C 85 % 18.09 C
1557 13-08-2015 09:40:00 20.9 C 84 % 18.09 C
1558 13-08-2015 09:45:00 21.1 C 84 % 18.29 C
1559 13-08-2015 09:50:00 21.3 C 85 % 18.67 C
1560 13-08-2015 09:55:00 21.4 C 83 % 18.39 C
1561 13-08-2015 10:00:00 21.6 C 81 % 18.2 C
1562 13-08-2015 10:05:00 21.9 C 79 % 18.09 C
1563 13-08-2015 10:10:00 22.2 C 79 % 18.38 C
1564 13-08-2015 10:15:00 22.4 C 78 % 18.37 C
1565 13-08-2015 10:20:00 22.8 C 77 % 18.56 C
1566 13-08-2015 10:25:00 23.1 C 76 % 18.64 C
1567 13-08-2015 10:30:00 23.3 C 75 % 18.62 C
1568 13-08-2015 10:35:00 23.5 C 74 % 18.6 C
1569 13-08-2015 10:40:00 23.7 C 74 % 18.79 C
1570 13-08-2015 10:45:00 23.8 C 73 % 18.67 C
1571 13-08-2015 10:50:00 23.9 C 74 % 18.98 C
1572 13-08-2015 10:55:00 24.1 C 74 % 19.17 C
1573 13-08-2015 11:00:00 24.2 C 72 % 18.83 C
1574 13-08-2015 11:05:00 24.5 C 72 % 19.12 C
1575 13-08-2015 11:10:00 24.9 C 70 % 19.05 C
Sensor: Nr:Datum:Temp:Feuchte:Taupunkt:
Aussen-T/F 1576 13-08-2015 11:15:00 25.4 C 69 % 19.3 C
1577 13-08-2015 11:20:00 25.8 C 68 % 19.44 C
1578 13-08-2015 11:25:00 26.1 C 67 % 19.49 C
1579 13-08-2015 11:30:00 26.4 C 66 % 19.53 C
1580 13-08-2015 11:35:00 26.8 C 63 % 19.16 C
1581 13-08-2015 11:40:00 26.9 C 63 % 19.26 C
1582 13-08-2015 11:45:00 26.9 C 63 % 19.26 C
1583 13-08-2015 11:50:00 27.1 C 62 % 19.19 C
1584 13-08-2015 11:55:00 27.3 C 62 % 19.38 C
1585 13-08-2015 12:00:00 27.6 C 62 % 19.66 C
1586 13-08-2015 12:05:00 27.7 C 62 % 19.75 C
1587 13-08-2015 12:10:00 28 C 60 % 19.51 C
1588 13-08-2015 12:15:00 28.2 C 60 % 19.69 C
1589 13-08-2015 12:20:00 28.4 C 59 % 19.61 C
1590 13-08-2015 12:25:00 28.6 C 58 % 19.52 C
1591 13-08-2015 12:30:00 28.8 C 57 % 19.43 C
1592 13-08-2015 12:35:00 29.2 C 56 % 19.52 C
1593 13-08-2015 12:40:00 29.4 C 55 % 19.41 C
1594 13-08-2015 12:45:00 29.8 C 55 % 19.78 C
1595 13-08-2015 12:50:00 30.2 C 55 % 20.15 C
1596 13-08-2015 12:55:00 30.4 C 54 % 20.04 C
1597 13-08-2015 13:00:00 30.7 C 52 % 19.71 C
1598 13-08-2015 13:05:00 30.8 C 54 % 20.41 C
1599 13-08-2015 13:10:00 31.1 C 53 % 20.39 C
1600 13-08-2015 13:15:00 31.3 C 51 % 19.95 C
Sensor: Nr:Datum:Temp:Feuchte:Taupunkt:
Aussen-T/F 1601 13-08-2015 13:20:00 31.4 C 49 % 19.39 C
1602 13-08-2015 13:25:00 31.4 C 51 % 20.04 C
1603 13-08-2015 13:30:00 31.6 C 49 % 19.58 C
1604 13-08-2015 13:35:00 31.8 C 48 % 19.43 C
1605 13-08-2015 13:40:00 31.9 C 49 % 19.85 C
1606 13-08-2015 13:45:00 32.2 C 48 % 19.79 C
1607 13-08-2015 13:50:00 32.2 C 48 % 19.79 C
1608 13-08-2015 13:55:00 32.5 C 47 % 19.72 C
1609 13-08-2015 14:00:00 32.7 C 47 % 19.91 C
1610 13-08-2015 14:05:00 32.8 C 46 % 19.65 C
1611 13-08-2015 14:10:00 33.1 C 46 % 19.92 C
1612 13-08-2015 14:15:00 33.1 C 45 % 19.57 C
1613 13-08-2015 14:20:00 33 C 46 % 19.83 C
1614 13-08-2015 14:25:00 33.2 C 46 % 20.01 C
1615 13-08-2015 14:30:00 33.3 C 43 % 19.02 C
1616 13-08-2015 14:35:00 33.5 C 45 % 19.93 C
1617 13-08-2015 14:40:00 33.8 C 44 % 19.83 C
1618 13-08-2015 14:45:00 33.9 C 43 % 19.55 C
1619 13-08-2015 14:50:00 34 C 42 % 19.27 C
1620 13-08-2015 14:55:00 33.9 C 43 % 19.55 C
1621 13-08-2015 15:00:00 33.7 C 42 % 19 C
1622 13-08-2015 15:05:00 33.8 C 44 % 19.83 C
1623 13-08-2015 15:10:00 33.9 C 42 % 19.18 C
1624 13-08-2015 15:15:00 33.9 C 43 % 19.55 C
1625 13-08-2015 15:20:00 34.1 C 42 % 19.35 C
Sensor: Nr:Datum:Temp:Feuchte:Taupunkt:
Aussen-T/F 1626 13-08-2015 15:25:00 34.2 C 41 % 19.06 C
1627 13-08-2015 15:30:00 33.9 C 42 % 19.18 C
1628 13-08-2015 15:35:00 34.1 C 42 % 19.35 C
1629 13-08-2015 15:40:00 34.1 C 42 % 19.35 C
1630 13-08-2015 15:45:00 33.8 C 41 % 18.7 C
1631 13-08-2015 15:50:00 33.7 C 42 % 19 C
1632 13-08-2015 15:55:00 33.5 C 44 % 19.56 C
1633 13-08-2015 16:00:00 33.3 C 45 % 19.75 C
1634 13-08-2015 16:05:00 33.3 C 44 % 19.38 C
1635 13-08-2015 16:10:00 33.2 C 45 % 19.66 C
1636 13-08-2015 16:15:00 33.2 C 44 % 19.29 C
1637 13-08-2015 16:20:00 33.2 C 47 % 20.36 C
1638 13-08-2015 16:25:00 33.2 C 45 % 19.66 C
1639 13-08-2015 16:30:00 33.3 C 45 % 19.75 C
1640 13-08-2015 16:35:00 33.3 C 44 % 19.38 C
1641 13-08-2015 16:40:00 33.4 C 44 % 19.47 C
1642 13-08-2015 16:45:00 33.4 C 44 % 19.47 C
1643 13-08-2015 16:50:00 33.3 C 45 % 19.75 C
1644 13-08-2015 16:55:00 33.3 C 45 % 19.75 C
1645 13-08-2015 17:00:00 33.6 C 44 % 19.65 C
1646 13-08-2015 17:05:00 33.7 C 44 % 19.74 C
1647 13-08-2015 17:10:00 33.9 C 44 % 19.92 C
1648 13-08-2015 17:15:00 34.2 C 43 % 19.82 C
1649 13-08-2015 17:20:00 34.3 C 42 % 19.53 C
1650 13-08-2015 17:25:00 34.6 C 42 % 19.8 C
Sensor: Nr:Datum:Temp:Feuchte:Taupunkt:
Aussen-T/F 1651 13-08-2015 17:30:00 34.7 C 42 % 19.89 C
1652 13-08-2015 17:35:00 34.6 C 42 % 19.8 C
1653 13-08-2015 17:40:00 34.5 C 41 % 19.32 C
1654 13-08-2015 17:45:00 34.4 C 41 % 19.24 C
1655 13-08-2015 17:50:00 34.4 C 41 % 19.24 C
1656 13-08-2015 17:55:00 34.3 C 42 % 19.53 C
1657 13-08-2015 18:00:00 34.6 C 41 % 19.41 C
1658 13-08-2015 18:05:00 34.7 C 40 % 19.11 C
1659 13-08-2015 18:10:00 34.6 C 40 % 19.02 C
1660 13-08-2015 18:15:00 34.6 C 40 % 19.02 C
1661 13-08-2015 18:20:00 34.6 C 41 % 19.41 C
1662 13-08-2015 18:25:00 34.6 C 40 % 19.02 C
1663 13-08-2015 18:30:00 34.5 C 40 % 18.93 C
1664 13-08-2015 18:35:00 34.5 C 40 % 18.93 C
1665 13-08-2015 18:40:00 34.4 C 41 % 19.24 C
1666 13-08-2015 18:45:00 34.3 C 40 % 18.75 C
1667 13-08-2015 18:50:00 34.4 C 41 % 19.24 C
1668 13-08-2015 18:55:00 34.3 C 41 % 19.15 C
1669 13-08-2015 19:00:00 34.2 C 41 % 19.06 C
1670 13-08-2015 19:05:00 34.1 C 41 % 18.97 C
1671 13-08-2015 19:10:00 33.8 C 42 % 19.09 C
1672 13-08-2015 19:15:00 33.3 C 48 % 20.79 C
1673 13-08-2015 19:20:00 32.4 C 50 % 20.63 C
1674 13-08-2015 19:25:00 31.9 C 52 % 20.81 C
1675 13-08-2015 19:30:00 31.4 C 53 % 20.66 C
Sensor: Nr:Datum:Temp:Feuchte:Taupunkt:
Aussen-T/F 1676 13-08-2015 19:35:00 30.8 C 55 % 20.71 C
1677 13-08-2015 19:40:00 30.3 C 56 % 20.54 C
1678 13-08-2015 19:45:00 29.8 C 57 % 20.36 C
1679 13-08-2015 19:50:00 29.4 C 61 % 21.09 C
1680 13-08-2015 19:55:00 28.8 C 61 % 20.52 C
1681 13-08-2015 20:00:00 28.4 C 62 % 20.41 C
1682 13-08-2015 20:05:00 28.1 C 62 % 20.13 C
1683 13-08-2015 20:10:00 27.8 C 63 % 20.11 C
1684 13-08-2015 20:15:00 27.7 C 63 % 20.01 C
1685 13-08-2015 20:20:00 27.4 C 63 % 19.73 C
1686 13-08-2015 20:25:00 27.3 C 63 % 19.63 C
1687 13-08-2015 20:30:00 27.2 C 64 % 19.79 C
1688 13-08-2015 20:35:00 27 C 65 % 19.86 C
1689 13-08-2015 20:40:00 26.9 C 65 % 19.76 C
1690 13-08-2015 20:45:00 26.8 C 66 % 19.91 C
1691 13-08-2015 20:50:00 26.8 C 65 % 19.67 C
1692 13-08-2015 20:55:00 26.7 C 66 % 19.82 C
1693 13-08-2015 21:00:00 26.7 C 66 % 19.82 C
1694 13-08-2015 21:05:00 26.8 C 66 % 19.91 C
1695 13-08-2015 21:10:00 26.8 C 66 % 19.91 C
1696 13-08-2015 21:15:00 26.7 C 67 % 20.06 C
1697 13-08-2015 21:20:00 26.6 C 67 % 19.97 C
1698 13-08-2015 21:25:00 26.5 C 68 % 20.11 C
1699 13-08-2015 21:30:00 26.4 C 67 % 19.78 C
1700 13-08-2015 21:35:00 26.4 C 68 % 20.01 C
Sensor: Nr:Datum:Temp:Feuchte:Taupunkt:
Aussen-T/F 1701 13-08-2015 21:40:00 26.3 C 68 % 19.92 C
1702 13-08-2015 21:45:00 26.3 C 68 % 19.92 C
1703 13-08-2015 21:50:00 26.3 C 68 % 19.92 C
1704 13-08-2015 21:55:00 26.3 C 68 % 19.92 C
1705 13-08-2015 22:00:00 26.3 C 69 % 20.16 C
1706 13-08-2015 22:05:00 26.2 C 69 % 20.06 C
1707 13-08-2015 22:10:00 26.3 C 66 % 19.44 C
1708 13-08-2015 22:15:00 27 C 65 % 19.86 C
1709 13-08-2015 22:20:00 27.3 C 64 % 19.89 C
1710 13-08-2015 22:25:00 27.4 C 61 % 19.21 C
1711 13-08-2015 22:30:00 27.6 C 63 % 19.92 C
1712 13-08-2015 22:35:00 27.3 C 63 % 19.63 C
1713 13-08-2015 22:40:00 26.9 C 65 % 19.76 C
1714 13-08-2015 22:45:00 26.6 C 67 % 19.97 C
1715 13-08-2015 22:50:00 26.2 C 68 % 19.82 C
1716 13-08-2015 22:55:00 25.9 C 69 % 19.77 C
1717 13-08-2015 23:00:00 25.7 C 70 % 19.81 C
1718 13-08-2015 23:05:00 25.4 C 71 % 19.76 C
1719 13-08-2015 23:10:00 25.3 C 71 % 19.66 C
1720 13-08-2015 23:15:00 25.2 C 72 % 19.79 C
1721 13-08-2015 23:20:00 25 C 73 % 19.82 C
1722 13-08-2015 23:25:00 24.8 C 73 % 19.63 C
1723 13-08-2015 23:30:00 24.7 C 74 % 19.75 C
1724 13-08-2015 23:35:00 24.6 C 74 % 19.66 C
1725 13-08-2015 23:40:00 24.6 C 74 % 19.66 C
Sensor: Nr:Datum:Temp:Feuchte:Taupunkt:
Aussen-T/F 1726 13-08-2015 23:45:00 24.4 C 75 % 19.68 C
1727 13-08-2015 23:50:00 24.3 C 75 % 19.58 C
1728 13-08-2015 23:55:00 24.3 C 75 % 19.58 C
1729 14-08-2015 00:00:00 24.3 C 75 % 19.58 C
1730 14-08-2015 00:05:00 24.2 C 75 % 19.49 C
1731 14-08-2015 00:10:00 24.2 C 76 % 19.7 C
1732 14-08-2015 00:15:00 24.1 C 76 % 19.6 C
1733 14-08-2015 00:20:00 24.1 C 76 % 19.6 C
1734 14-08-2015 00:25:00 24.8 C 70 % 18.95 C
1735 14-08-2015 00:30:00 25.6 C 65 % 18.53 C
1736 14-08-2015 00:35:00 26 C 63 % 18.41 C
1737 14-08-2015 00:40:00 26.1 C 62 % 18.25 C
1738 14-08-2015 00:45:00 26 C 62 % 18.15 C
1739 14-08-2015 00:50:00 25.9 C 61 % 17.8 C
1740 14-08-2015 00:55:00 25.8 C 62 % 17.97 C
1741 14-08-2015 01:00:00 25.4 C 62 % 17.59 C
1742 14-08-2015 01:05:00 24.9 C 66 % 18.11 C
1743 14-08-2015 01:10:00 24.5 C 67 % 17.97 C
1744 14-08-2015 01:15:00 24.2 C 68 % 17.92 C
1745 14-08-2015 01:20:00 24 C 69 % 17.96 C
1746 14-08-2015 01:25:00 23.9 C 70 % 18.09 C
1747 14-08-2015 01:30:00 23.8 C 70 % 18 C
1748 14-08-2015 01:35:00 23.7 C 71 % 18.13 C
1749 14-08-2015 01:40:00 23.6 C 72 % 18.26 C
1750 14-08-2015 01:45:00 23.4 C 73 % 18.28 C
Sensor: Nr:Datum:Temp:Feuchte:Taupunkt:
Aussen-T/F 1751 14-08-2015 01:50:00 23.2 C 75 % 18.52 C
1752 14-08-2015 01:55:00 23 C 76 % 18.54 C
1753 14-08-2015 02:00:00 22.8 C 77 % 18.56 C
1754 14-08-2015 02:05:00 22.6 C 78 % 18.57 C
1755 14-08-2015 02:10:00 22.4 C 79 % 18.58 C
1756 14-08-2015 02:15:00 22.3 C 80 % 18.68 C
1757 14-08-2015 02:20:00 22.3 C 80 % 18.68 C
1758 14-08-2015 02:25:00 22.2 C 80 % 18.58 C
1759 14-08-2015 02:30:00 22.2 C 80 % 18.58 C
1760 14-08-2015 02:35:00 22.2 C 80 % 18.58 C
1761 14-08-2015 02:40:00 22.2 C 80 % 18.58 C
1762 14-08-2015 02:45:00 22.2 C 81 % 18.78 C
1763 14-08-2015 02:50:00 22.2 C 80 % 18.58 C
1764 14-08-2015 02:55:00 22.2 C 80 % 18.58 C
1765 14-08-2015 03:00:00 22.2 C 80 % 18.58 C
1766 14-08-2015 03:05:00 22.2 C 80 % 18.58 C
1767 14-08-2015 03:10:00 22.2 C 80 % 18.58 C
1768 14-08-2015 03:15:00 22.2 C 80 % 18.58 C
1769 14-08-2015 03:20:00 22.1 C 80 % 18.49 C
1770 14-08-2015 03:25:00 22.1 C 80 % 18.49 C
1771 14-08-2015 03:30:00 22.1 C 80 % 18.49 C
1772 14-08-2015 03:35:00 21.9 C 80 % 18.29 C
1773 14-08-2015 03:40:00 21.8 C 81 % 18.39 C
1774 14-08-2015 03:45:00 21.7 C 81 % 18.3 C
1775 14-08-2015 03:50:00 21.5 C 82 % 18.3 C
Sensor: Nr:Datum:Temp:Feuchte:Taupunkt:
Aussen-T/F 1776 14-08-2015 03:55:00 21.4 C 83 % 18.39 C
1777 14-08-2015 04:00:00 21.4 C 83 % 18.39 C
1778 14-08-2015 04:05:00 21.3 C 83 % 18.29 C
1779 14-08-2015 04:10:00 21.3 C 83 % 18.29 C
1780 14-08-2015 04:15:00 21.3 C 82 % 18.1 C
1781 14-08-2015 04:20:00 21.4 C 83 % 18.39 C
1782 14-08-2015 04:25:00 21.4 C 83 % 18.39 C
1783 14-08-2015 04:30:00 21.3 C 84 % 18.49 C
1784 14-08-2015 04:35:00 21.2 C 85 % 18.58 C
1785 14-08-2015 04:40:00 21 C 86 % 18.57 C
1786 14-08-2015 04:45:00 20.8 C 87 % 18.56 C
1787 14-08-2015 04:50:00 20.7 C 88 % 18.64 C
1788 14-08-2015 04:55:00 20.5 C 88 % 18.44 C
1789 14-08-2015 05:00:00 20.4 C 88 % 18.34 C
1790 14-08-2015 05:05:00 20.4 C 89 % 18.53 C
1791 14-08-2015 05:10:00 20.3 C 89 % 18.43 C
1792 14-08-2015 05:15:00 20.2 C 89 % 18.33 C
1793 14-08-2015 05:20:00 20.2 C 89 % 18.33 C
1794 14-08-2015 05:25:00 20.1 C 89 % 18.23 C
1795 14-08-2015 05:30:00 20 C 89 % 18.13 C
1796 14-08-2015 05:35:00 20 C 90 % 18.31 C
1797 14-08-2015 05:40:00 19.9 C 90 % 18.21 C
1798 14-08-2015 05:45:00 19.9 C 90 % 18.21 C
1799 14-08-2015 05:50:00 19.9 C 90 % 18.21 C
1800 14-08-2015 05:55:00 19.8 C 90 % 18.11 C
Sensor: Nr:Datum:Temp:Feuchte:Taupunkt:
Aussen-T/F 1801 14-08-2015 06:00:00 19.8 C 90 % 18.11 C
1802 14-08-2015 06:05:00 19.8 C 90 % 18.11 C
1803 14-08-2015 06:10:00 19.7 C 90 % 18.01 C
1804 14-08-2015 06:15:00 19.7 C 90 % 18.01 C
1805 14-08-2015 06:20:00 19.7 C 90 % 18.01 C
1806 14-08-2015 06:25:00 19.8 C 90 % 18.11 C
1807 14-08-2015 06:30:00 19.8 C 90 % 18.11 C
1808 14-08-2015 06:35:00 19.8 C 90 % 18.11 C
1809 14-08-2015 06:40:00 19.8 C 90 % 18.11 C
1810 14-08-2015 06:45:00 19.8 C 90 % 18.11 C
1811 14-08-2015 06:50:00 19.8 C 90 % 18.11 C
1812 14-08-2015 06:55:00 19.8 C 90 % 18.11 C
1813 14-08-2015 07:00:00 19.8 C 90 % 18.11 C
1814 14-08-2015 07:05:00 19.8 C 90 % 18.11 C
1815 14-08-2015 07:10:00 19.9 C 90 % 18.21 C
1816 14-08-2015 07:15:00 19.9 C 90 % 18.21 C
1817 14-08-2015 07:20:00 19.9 C 90 % 18.21 C
1818 14-08-2015 07:25:00 19.9 C 90 % 18.21 C
1819 14-08-2015 07:30:00 20 C 90 % 18.31 C
1820 14-08-2015 07:35:00 20 C 90 % 18.31 C
1821 14-08-2015 07:40:00 20 C 90 % 18.31 C
1822 14-08-2015 07:45:00 20.1 C 90 % 18.41 C
1823 14-08-2015 07:50:00 20.1 C 90 % 18.41 C
1824 14-08-2015 07:55:00 20.2 C 90 % 18.51 C
1825 14-08-2015 08:00:00 20.3 C 90 % 18.61 C
Sensor: Nr:Datum:Temp:Feuchte:Taupunkt:
Aussen-T/F 1826 14-08-2015 08:05:00 20.4 C 89 % 18.53 C
1827 14-08-2015 08:10:00 20.6 C 89 % 18.72 C
1828 14-08-2015 08:15:00 20.7 C 88 % 18.64 C
1829 14-08-2015 08:20:00 20.8 C 88 % 18.74 C
1830 14-08-2015 08:25:00 20.9 C 88 % 18.84 C
1831 14-08-2015 08:30:00 21.1 C 87 % 18.85 C
1832 14-08-2015 08:35:00 21.2 C 86 % 18.76 C
1833 14-08-2015 08:40:00 21.3 C 86 % 18.86 C
1834 14-08-2015 08:45:00 21.4 C 85 % 18.77 C
1835 14-08-2015 08:50:00 21.5 C 85 % 18.87 C
1836 14-08-2015 08:55:00 21.6 C 84 % 18.78 C
1837 14-08-2015 09:00:00 21.7 C 82 % 18.49 C
1838 14-08-2015 09:05:00 21.8 C 82 % 18.59 C
1839 14-08-2015 09:10:00 22 C 80 % 18.39 C
1840 14-08-2015 09:15:00 22.3 C 79 % 18.48 C
1841 14-08-2015 09:20:00 22.4 C 78 % 18.37 C
1842 14-08-2015 09:25:00 22.6 C 78 % 18.57 C
1843 14-08-2015 09:30:00 22.5 C 78 % 18.47 C
1844 14-08-2015 09:35:00 22.4 C 78 % 18.37 C
1845 14-08-2015 09:40:00 22.3 C 79 % 18.48 C
1846 14-08-2015 09:45:00 22.2 C 79 % 18.38 C
1847 14-08-2015 09:50:00 22.2 C 79 % 18.38 C
1848 14-08-2015 09:55:00 22.3 C 79 % 18.48 C
1849 14-08-2015 10:00:00 22.5 C 77 % 18.27 C
1850 14-08-2015 10:05:00 22.6 C 77 % 18.36 C
Sensor: Nr:Datum:Temp:Feuchte:Taupunkt:
Aussen-T/F 1851 14-08-2015 10:10:00 22.6 C 76 % 18.15 C
1852 14-08-2015 10:15:00 22.6 C 76 % 18.15 C
1853 14-08-2015 10:20:00 22.6 C 76 % 18.15 C
1854 14-08-2015 10:25:00 22.6 C 77 % 18.36 C
1855 14-08-2015 10:30:00 22.6 C 77 % 18.36 C
1856 14-08-2015 10:35:00 22.6 C 76 % 18.15 C
1857 14-08-2015 10:40:00 22.6 C 76 % 18.15 C
1858 14-08-2015 10:45:00 22.7 C 76 % 18.25 C
1859 14-08-2015 10:50:00 22.7 C 76 % 18.25 C
1860 14-08-2015 10:55:00 22.7 C 77 % 18.46 C
1861 14-08-2015 11:00:00 22.9 C 77 % 18.65 C
1862 14-08-2015 11:05:00 22.9 C 76 % 18.44 C
1863 14-08-2015 11:10:00 22.7 C 77 % 18.46 C
1864 14-08-2015 11:15:00 22.6 C 76 % 18.15 C
1865 14-08-2015 11:20:00 22.6 C 78 % 18.57 C
1866 14-08-2015 11:25:00 22.6 C 77 % 18.36 C
1867 14-08-2015 11:30:00 22.7 C 77 % 18.46 C
1868 14-08-2015 11:35:00 23 C 76 % 18.54 C
1869 14-08-2015 11:40:00 23.2 C 75 % 18.52 C
1870 14-08-2015 11:45:00 23.3 C 74 % 18.4 C
1871 14-08-2015 11:50:00 23.4 C 74 % 18.5 C
1872 14-08-2015 11:55:00 23.6 C 73 % 18.48 C
1873 14-08-2015 12:00:00 23.8 C 72 % 18.45 C
1874 14-08-2015 12:05:00 24.1 C 70 % 18.29 C
1875 14-08-2015 12:10:00 24.2 C 69 % 18.15 C
Sensor: Nr:Datum:Temp:Feuchte:Taupunkt:
Aussen-T/F 1876 14-08-2015 12:15:00 24.3 C 69 % 18.25 C
1877 14-08-2015 12:20:00 24.7 C 69 % 18.63 C
1878 14-08-2015 12:25:00 25 C 68 % 18.68 C
1879 14-08-2015 12:30:00 25.5 C 65 % 18.44 C
1880 14-08-2015 12:35:00 25.8 C 65 % 18.72 C
1881 14-08-2015 12:40:00 26.1 C 64 % 18.76 C
1882 14-08-2015 12:45:00 26.3 C 62 % 18.44 C
1883 14-08-2015 12:50:00 26.3 C 62 % 18.44 C
1884 14-08-2015 12:55:00 26.2 C 63 % 18.6 C
1885 14-08-2015 13:00:00 26.1 C 62 % 18.25 C
1886 14-08-2015 13:05:00 26.2 C 62 % 18.34 C
1887 14-08-2015 13:10:00 26.3 C 62 % 18.44 C
1888 14-08-2015 13:15:00 26.3 C 62 % 18.44 C
1889 14-08-2015 13:20:00 26.2 C 62 % 18.34 C
1890 14-08-2015 13:25:00 26.2 C 62 % 18.34 C
1891 14-08-2015 13:30:00 26.5 C 61 % 18.36 C
1892 14-08-2015 13:35:00 26.8 C 60 % 18.38 C
1893 14-08-2015 13:40:00 27.2 C 59 % 18.49 C
1894 14-08-2015 13:45:00 27.4 C 57 % 18.13 C
1895 14-08-2015 13:50:00 27.1 C 58 % 18.12 C
1896 14-08-2015 13:55:00 27.1 C 59 % 18.4 C
1897 14-08-2015 14:00:00 27 C 58 % 18.03 C
1898 14-08-2015 14:05:00 26.9 C 58 % 17.94 C
1899 14-08-2015 14:10:00 26.8 C 58 % 17.84 C
1900 14-08-2015 14:15:00 26.7 C 59 % 18.02 C
Sensor: Nr:Datum:Temp:Feuchte:Taupunkt:
Aussen-T/F 1901 14-08-2015 14:20:00 26.9 C 58 % 17.94 C
1902 14-08-2015 14:25:00 27.4 C 58 % 18.4 C
1903 14-08-2015 14:30:00 27.9 C 55 % 18.02 C
1904 14-08-2015 14:35:00 28.1 C 54 % 17.92 C
1905 14-08-2015 14:40:00 27.9 C 54 % 17.73 C
1906 14-08-2015 14:45:00 27.7 C 56 % 18.12 C
1907 14-08-2015 14:50:00 27.9 C 55 % 18.02 C
1908 14-08-2015 14:55:00 28.1 C 54 % 17.92 C
1909 14-08-2015 15:00:00 28.3 C 55 % 18.39 C
1910 14-08-2015 15:05:00 28.4 C 54 % 18.19 C
1911 14-08-2015 15:10:00 28.7 C 52 % 17.87 C
1912 14-08-2015 15:15:00 28.6 C 52 % 17.78 C
1913 14-08-2015 15:20:00 28.3 C 53 % 17.8 C
1914 14-08-2015 15:25:00 28.1 C 54 % 17.92 C
1915 14-08-2015 15:30:00 27.9 C 55 % 18.02 C
1916 14-08-2015 15:35:00 27.9 C 54 % 17.73 C
1917 14-08-2015 15:40:00 28 C 54 % 17.82 C
1918 14-08-2015 15:45:00 27.8 C 54 % 17.64 C
1919 14-08-2015 15:50:00 27.7 C 54 % 17.55 C
1920 14-08-2015 15:55:00 28 C 54 % 17.82 C
1921 14-08-2015 16:00:00 28.7 C 52 % 17.87 C
1922 14-08-2015 16:05:00 29.1 C 51 % 17.93 C
1923 14-08-2015 16:10:00 29.2 C 50 % 17.71 C
1924 14-08-2015 16:15:00 29.2 C 50 % 17.71 C
1925 14-08-2015 16:20:00 29.1 C 50 % 17.61 C
Sensor: Nr:Datum:Temp:Feuchte:Taupunkt:
Aussen-T/F 1926 14-08-2015 16:25:00 28.9 C 51 % 17.74 C
1927 14-08-2015 16:30:00 28.7 C 50 % 17.25 C
1928 14-08-2015 16:35:00 28.6 C 50 % 17.16 C
1929 14-08-2015 16:40:00 28.3 C 50 % 16.88 C
1930 14-08-2015 16:45:00 28.1 C 52 % 17.32 C
1931 14-08-2015 16:50:00 27.8 C 52 % 17.04 C
1932 14-08-2015 16:55:00 27.7 C 53 % 17.25 C
1933 14-08-2015 17:00:00 27.9 C 54 % 17.73 C
1934 14-08-2015 17:05:00 28.6 C 51 % 17.47 C
1935 14-08-2015 17:10:00 29.2 C 50 % 17.71 C
1936 14-08-2015 17:15:00 29.6 C 48 % 17.42 C
1937 14-08-2015 17:20:00 29.3 C 49 % 17.48 C
1938 14-08-2015 17:25:00 28.8 C 49 % 17.02 C
1939 14-08-2015 17:30:00 28.9 C 50 % 17.43 C
1940 14-08-2015 17:35:00 28.9 C 49 % 17.11 C
1941 14-08-2015 17:40:00 28.8 C 49 % 17.02 C
1942 14-08-2015 17:45:00 28.8 C 51 % 17.65 C
1943 14-08-2015 17:50:00 29.2 C 49 % 17.39 C
1944 14-08-2015 17:55:00 29.4 C 48 % 17.24 C
1945 14-08-2015 18:00:00 29.5 C 48 % 17.33 C
1946 14-08-2015 18:05:00 29.4 C 48 % 17.24 C
1947 14-08-2015 18:10:00 29.5 C 47 % 17 C
1948 14-08-2015 18:15:00 29.5 C 47 % 17 C
1949 14-08-2015 18:20:00 29.6 C 47 % 17.09 C
1950 14-08-2015 18:25:00 29.3 C 47 % 16.82 C
Sensor: Nr:Datum:Temp:Feuchte:Taupunkt:
Aussen-T/F 1951 14-08-2015 18:30:00 28.9 C 48 % 16.79 C
1952 14-08-2015 18:35:00 28.3 C 49 % 16.56 C
1953 14-08-2015 18:40:00 28.2 C 49 % 16.47 C
1954 14-08-2015 18:45:00 28.3 C 50 % 16.88 C
1955 14-08-2015 18:50:00 28.6 C 48 % 16.51 C
1956 14-08-2015 18:55:00 28.7 C 48 % 16.6 C
1957 14-08-2015 19:00:00 28.9 C 48 % 16.79 C
1958 14-08-2015 19:05:00 29.1 C 47 % 16.64 C
1959 14-08-2015 19:10:00 28.8 C 46 % 16.03 C
1960 14-08-2015 19:15:00 28.6 C 48 % 16.51 C
1961 14-08-2015 19:20:00 28.3 C 49 % 16.56 C
1962 14-08-2015 19:25:00 28.3 C 48 % 16.24 C
1963 14-08-2015 19:30:00 28.4 C 49 % 16.65 C
1964 14-08-2015 19:35:00 28.4 C 48 % 16.33 C
1965 14-08-2015 19:40:00 28.4 C 48 % 16.33 C
1966 14-08-2015 19:45:00 28.2 C 49 % 16.47 C
1967 14-08-2015 19:50:00 28.2 C 49 % 16.47 C
1968 14-08-2015 19:55:00 28.1 C 49 % 16.38 C
1969 14-08-2015 20:00:00 27.9 C 49 % 16.2 C
1970 14-08-2015 20:05:00 27.8 C 48 % 15.78 C
1971 14-08-2015 20:10:00 27.7 C 50 % 16.33 C
1972 14-08-2015 20:15:00 27.6 C 50 % 16.24 C
1973 14-08-2015 20:20:00 27.6 C 51 % 16.55 C
1974 14-08-2015 20:25:00 27.4 C 50 % 16.06 C
1975 14-08-2015 20:30:00 27.2 C 53 % 16.79 C
Sensor: Nr:Datum:Temp:Feuchte:Taupunkt:
Aussen-T/F 1976 14-08-2015 20:35:00 26.8 C 54 % 16.71 C
1977 14-08-2015 20:40:00 26.5 C 56 % 17.01 C
1978 14-08-2015 20:45:00 26.2 C 58 % 17.28 C
1979 14-08-2015 20:50:00 25.7 C 60 % 17.35 C
1980 14-08-2015 20:55:00 25.3 C 61 % 17.24 C
1981 14-08-2015 21:00:00 25 C 62 % 17.21 C
1982 14-08-2015 21:05:00 24.7 C 63 % 17.18 C
1983 14-08-2015 21:10:00 24.3 C 63 % 16.81 C
1984 14-08-2015 21:15:00 24.1 C 65 % 17.11 C
1985 14-08-2015 21:20:00 23.8 C 65 % 16.83 C
1986 14-08-2015 21:25:00 23.7 C 66 % 16.97 C
1987 14-08-2015 21:30:00 23.5 C 67 % 17.02 C
1988 14-08-2015 21:35:00 23.3 C 66 % 16.59 C
1989 14-08-2015 21:40:00 23.2 C 66 % 16.5 C
1990 14-08-2015 21:45:00 23 C 66 % 16.31 C
1991 14-08-2015 21:50:00 22.8 C 67 % 16.35 C
1992 14-08-2015 21:55:00 22.7 C 68 % 16.49 C
1993 14-08-2015 22:00:00 22.6 C 68 % 16.39 C
1994 14-08-2015 22:05:00 22.4 C 69 % 16.43 C
1995 14-08-2015 22:10:00 22.3 C 70 % 16.56 C
1996 14-08-2015 22:15:00 22.3 C 69 % 16.34 C
1997 14-08-2015 22:20:00 22.3 C 70 % 16.56 C
1998 14-08-2015 22:25:00 22.3 C 70 % 16.56 C
1999 14-08-2015 22:30:00 22.2 C 70 % 16.47 C
2000 14-08-2015 22:35:00 22.2 C 70 % 16.47 C
Sensor: Nr:Datum:Temp:Feuchte:Taupunkt:
Aussen-T/F 2001 14-08-2015 22:40:00 22.2 C 70 % 16.47 C
2002 14-08-2015 22:45:00 22.2 C 70 % 16.47 C
2003 14-08-2015 22:50:00 22.1 C 71 % 16.6 C
2004 14-08-2015 22:55:00 22.1 C 71 % 16.6 C
2005 14-08-2015 23:00:00 22 C 71 % 16.5 C
2006 14-08-2015 23:05:00 21.9 C 71 % 16.4 C
2007 14-08-2015 23:10:00 21.9 C 71 % 16.4 C
2008 14-08-2015 23:15:00 21.8 C 71 % 16.31 C
2009 14-08-2015 23:20:00 21.8 C 71 % 16.31 C
2010 14-08-2015 23:25:00 21.7 C 71 % 16.21 C
2011 14-08-2015 23:30:00 21.7 C 71 % 16.21 C
2012 14-08-2015 23:35:00 21.7 C 71 % 16.21 C
2013 14-08-2015 23:40:00 21.7 C 71 % 16.21 C
2014 14-08-2015 23:45:00 21.7 C 71 % 16.21 C
2015 14-08-2015 23:50:00 21.7 C 71 % 16.21 C
2016 14-08-2015 23:55:00 21.6 C 71 % 16.12 C

Legende:
   Min
   Max


Maximal/Minimal-Werte vom 08.08.2015 - 14.08.2015

Sensor Min Max Avg
Temp
(Aussen-T/F)
17 °C
11-08-2015  06:25:00
34.7 °C
13-08-2015  17:30:00
22.73 °C
Feuchte
(Aussen-T/F)
40 %
13-08-2015  18:05:00
96 %
10-08-2015  07:55:00
76.04 %
Taupunkt
(Aussen-T/F)
15.02 C
10-08-2015  21:05:00
21.09 C
13-08-2015  19:50:00
17.94 C

Die Daten stammen von einer Davis Vantage Pro 2 Wetter-Station und werden unter Linux mit der Software wview2wettercgi und aufbereitet. Alle Angaben erfolgen ohne Gewähr für ihre Vollständigkeit oder Richtigkeit.
Kontakt: Rainer Krienke krienke@uni-koblenz.de . Meine Webseiten an der Uni Koblenz oder privat.
Version: $Revision: 0.78 $